<?xml version="1.0" encoding="UTF-8" standalone="no" ?>
<gpx xmlns="http://www.topografix.com/GPX/1/1" xmlns:xsi="http://www.w3.org/2001/XMLSchema-instance" xsi:schemaLocation="http://www.topografix.com/GPX/1/1 http://www.topografix.com/GPX/1/1/gpx.xsd" version="1.1" creator="VisuGPX - https://www.visugpx.com">
  <metadata>
    <name>Le tour de la Jemaye</name>
    <desc><![CDATA[Petite balade facile autour d\\\'un très bel endroit. A conseiller, le restau du lac, c\\\'est cool et on y mange bien.
]]></desc>
  </metadata>
  <trk>
    <name><![CDATA[2011/10/30 09:02:05]]></name>
    <trkseg>
      <trkpt lat="45.32623" lon="1.16292">
        <ele>-0.7700045466014</ele>
        <time>2011-10-30 08:02:05</time>
      </trkpt>
      <trkpt lat="45.32622" lon="1.16292">
        <ele>-0.78415916124857</ele>
        <time>2011-10-30 08:02:06</time>
      </trkpt>
      <trkpt lat="45.3259" lon="1.16322">
        <ele>-0.64498127905381</ele>
        <time>2011-10-30 08:03:04</time>
      </trkpt>
      <trkpt lat="45.32557" lon="1.16344">
        <ele>-0.59897926218309</ele>
        <time>2011-10-30 08:03:15</time>
      </trkpt>
      <trkpt lat="45.32526" lon="1.16313">
        <ele>-0.43484752012546</ele>
        <time>2011-10-30 08:05:48</time>
      </trkpt>
      <trkpt lat="45.32509" lon="1.16262">
        <ele>-1.1219627378939</ele>
        <time>2011-10-30 08:05:58</time>
      </trkpt>
      <trkpt lat="45.32489" lon="1.16218">
        <ele>-0.31777286842168</ele>
        <time>2011-10-30 08:06:08</time>
      </trkpt>
      <trkpt lat="45.32449" lon="1.16222">
        <ele>-0.51692377568782</ele>
        <time>2011-10-30 08:06:14</time>
      </trkpt>
      <trkpt lat="45.32408" lon="1.16216">
        <ele>-0.83551895820995</ele>
        <time>2011-10-30 08:06:19</time>
      </trkpt>
      <trkpt lat="45.32375" lon="1.16194">
        <ele>-0.59138839038314</ele>
        <time>2011-10-30 08:06:23</time>
      </trkpt>
      <trkpt lat="45.32345" lon="1.16158">
        <ele>-0.47439824806475</ele>
        <time>2011-10-30 08:06:27</time>
      </trkpt>
      <trkpt lat="45.32318" lon="1.16115">
        <ele>-1.1172239138141</ele>
        <time>2011-10-30 08:06:31</time>
      </trkpt>
      <trkpt lat="45.32292" lon="1.1607">
        <ele>-0.37106496090303</ele>
        <time>2011-10-30 08:06:35</time>
      </trkpt>
      <trkpt lat="45.32255" lon="1.1605">
        <ele>-0.82552115181375</ele>
        <time>2011-10-30 08:06:40</time>
      </trkpt>
      <trkpt lat="45.32225" lon="1.16019">
        <ele>-0.64501476654561</ele>
        <time>2011-10-30 08:06:46</time>
      </trkpt>
      <trkpt lat="45.32209" lon="1.15972">
        <ele>-0.56020854601184</ele>
        <time>2011-10-30 08:06:51</time>
      </trkpt>
      <trkpt lat="45.32188" lon="1.1592">
        <ele>-0.56864385422125</ele>
        <time>2011-10-30 08:06:56</time>
      </trkpt>
      <trkpt lat="45.32168" lon="1.15877">
        <ele>-0.47138802844302</ele>
        <time>2011-10-30 08:07:00</time>
      </trkpt>
      <trkpt lat="45.3214" lon="1.1584">
        <ele>-1.0598858460427</ele>
        <time>2011-10-30 08:07:04</time>
      </trkpt>
      <trkpt lat="45.32105" lon="1.15815">
        <ele>-0.84414810150793</ele>
        <time>2011-10-30 08:07:08</time>
      </trkpt>
      <trkpt lat="45.3207" lon="1.15791">
        <ele>-0.61008380774103</ele>
        <time>2011-10-30 08:07:12</time>
      </trkpt>
      <trkpt lat="45.32038" lon="1.15764">
        <ele>-0.41168046950315</ele>
        <time>2011-10-30 08:07:16</time>
      </trkpt>
      <trkpt lat="45.32" lon="1.15732">
        <ele>-0.99167608701862</ele>
        <time>2011-10-30 08:07:21</time>
      </trkpt>
      <trkpt lat="45.31964" lon="1.15702">
        <ele>-0.13820609940569</ele>
        <time>2011-10-30 08:07:26</time>
      </trkpt>
      <trkpt lat="45.31934" lon="1.15661">
        <ele>-0.78784159007364</ele>
        <time>2011-10-30 08:07:31</time>
      </trkpt>
      <trkpt lat="45.31907" lon="1.15622">
        <ele>-0.67538460433752</ele>
        <time>2011-10-30 08:07:36</time>
      </trkpt>
      <trkpt lat="45.31868" lon="1.15596">
        <ele>-0.49819090681058</ele>
        <time>2011-10-30 08:07:42</time>
      </trkpt>
      <trkpt lat="45.31829" lon="1.15588">
        <ele>-0.10858519123224</ele>
        <time>2011-10-30 08:07:47</time>
      </trkpt>
      <trkpt lat="45.31788" lon="1.15577">
        <ele>-0.478938276809</ele>
        <time>2011-10-30 08:07:52</time>
      </trkpt>
      <trkpt lat="45.3175" lon="1.15552">
        <ele>-0.99587141319444</ele>
        <time>2011-10-30 08:07:57</time>
      </trkpt>
      <trkpt lat="45.31721" lon="1.15521">
        <ele>-0.10407374974307</ele>
        <time>2011-10-30 08:08:02</time>
      </trkpt>
      <trkpt lat="45.31688" lon="1.15491">
        <ele>-0.63691016904147</ele>
        <time>2011-10-30 08:08:15</time>
      </trkpt>
      <trkpt lat="45.31654" lon="1.15473">
        <ele>-0.33306824306601</ele>
        <time>2011-10-30 08:08:26</time>
      </trkpt>
      <trkpt lat="45.31618" lon="1.15476">
        <ele>-1.2294237169094</ele>
        <time>2011-10-30 08:18:24</time>
      </trkpt>
      <trkpt lat="45.31606" lon="1.15525">
        <ele>-0.7486398472281</ele>
        <time>2011-10-30 08:20:18</time>
      </trkpt>
      <trkpt lat="45.31569" lon="1.15515">
        <ele>-0.36945616142691</ele>
        <time>2011-10-30 08:20:29</time>
      </trkpt>
      <trkpt lat="45.31533" lon="1.15524">
        <ele>-0.49529753734885</ele>
        <time>2011-10-30 08:20:36</time>
      </trkpt>
      <trkpt lat="45.31504" lon="1.15555">
        <ele>-1.0277780587197</ele>
        <time>2011-10-30 08:20:47</time>
      </trkpt>
      <trkpt lat="45.31481" lon="1.15602">
        <ele>-0.64885349181282</ele>
        <time>2011-10-30 08:20:55</time>
      </trkpt>
      <trkpt lat="45.31448" lon="1.15628">
        <ele>-1.2556342071559</ele>
        <time>2011-10-30 08:21:05</time>
      </trkpt>
      <trkpt lat="45.31411" lon="1.15605">
        <ele>-1.0265591496435</ele>
        <time>2011-10-30 08:21:14</time>
      </trkpt>
      <trkpt lat="45.31379" lon="1.15578">
        <ele>-0.10649009408701</ele>
        <time>2011-10-30 08:21:21</time>
      </trkpt>
      <trkpt lat="45.31348" lon="1.15543">
        <ele>-0.68584122604136</ele>
        <time>2011-10-30 08:21:28</time>
      </trkpt>
      <trkpt lat="45.31349" lon="1.15489">
        <ele>-0.57009867707052</ele>
        <time>2011-10-30 08:21:35</time>
      </trkpt>
      <trkpt lat="45.31367" lon="1.15441">
        <ele>-0.99343868126721</ele>
        <time>2011-10-30 08:21:46</time>
      </trkpt>
      <trkpt lat="45.31398" lon="1.15416">
        <ele>-0.38271041507721</ele>
        <time>2011-10-30 08:21:58</time>
      </trkpt>
      <trkpt lat="45.31429" lon="1.15386">
        <ele>-0.53186034692237</ele>
        <time>2011-10-30 08:22:07</time>
      </trkpt>
      <trkpt lat="45.31438" lon="1.15337">
        <ele>-0.32722243663352</ele>
        <time>2011-10-30 08:22:18</time>
      </trkpt>
      <trkpt lat="45.3146" lon="1.15291">
        <ele>-0.70148475186636</ele>
        <time>2011-10-30 08:22:27</time>
      </trkpt>
      <trkpt lat="45.31483" lon="1.15248">
        <ele>-1.0353829114924</ele>
        <time>2011-10-30 08:22:32</time>
      </trkpt>
      <trkpt lat="45.31473" lon="1.15197">
        <ele>-0.96845542572544</ele>
        <time>2011-10-30 08:22:39</time>
      </trkpt>
      <trkpt lat="45.31454" lon="1.15152">
        <ele>-0.86925475661155</ele>
        <time>2011-10-30 08:22:50</time>
      </trkpt>
      <trkpt lat="45.31422" lon="1.15129">
        <ele>-0.62175295511338</ele>
        <time>2011-10-30 08:23:01</time>
      </trkpt>
      <trkpt lat="45.31385" lon="1.15129">
        <ele>-0.83939275594173</ele>
        <time>2011-10-30 08:23:08</time>
      </trkpt>
      <trkpt lat="45.31346" lon="1.15117">
        <ele>-0.49849387160703</ele>
        <time>2011-10-30 08:23:15</time>
      </trkpt>
      <trkpt lat="45.31322" lon="1.15077">
        <ele>-0.38190105847889</ele>
        <time>2011-10-30 08:23:27</time>
      </trkpt>
      <trkpt lat="45.3129" lon="1.15033">
        <ele>-1.0566803052023</ele>
        <time>2011-10-30 08:23:33</time>
      </trkpt>
      <trkpt lat="45.31312" lon="1.14989">
        <ele>-0.71913310736011</ele>
        <time>2011-10-30 08:23:46</time>
      </trkpt>
      <trkpt lat="45.31345" lon="1.14966">
        <ele>-0.76168349140608</ele>
        <time>2011-10-30 08:24:12</time>
      </trkpt>
      <trkpt lat="45.31374" lon="1.14932">
        <ele>-0.26505794140928</ele>
        <time>2011-10-30 08:24:58</time>
      </trkpt>
      <trkpt lat="45.31399" lon="1.1489">
        <ele>-0.59440241308835</ele>
        <time>2011-10-30 08:25:08</time>
      </trkpt>
      <trkpt lat="45.31384" lon="1.14838">
        <ele>-0.53850372201555</ele>
        <time>2011-10-30 08:25:21</time>
      </trkpt>
      <trkpt lat="45.31353" lon="1.14813">
        <ele>-1.0017972275947</ele>
        <time>2011-10-30 08:25:31</time>
      </trkpt>
      <trkpt lat="45.31328" lon="1.14776">
        <ele>-0.85834728494888</ele>
        <time>2011-10-30 08:25:46</time>
      </trkpt>
      <trkpt lat="45.31291" lon="1.1476">
        <ele>-0.55692876355533</ele>
        <time>2011-10-30 08:26:01</time>
      </trkpt>
      <trkpt lat="45.31253" lon="1.14758">
        <ele>-0.80390796032611</ele>
        <time>2011-10-30 08:26:10</time>
      </trkpt>
      <trkpt lat="45.31213" lon="1.14756">
        <ele>-0.36096440713993</ele>
        <time>2011-10-30 08:26:18</time>
      </trkpt>
      <trkpt lat="45.31176" lon="1.14775">
        <ele>-0.35611519463998</ele>
        <time>2011-10-30 08:26:26</time>
      </trkpt>
      <trkpt lat="45.3114" lon="1.14784">
        <ele>-0.4795898548274</ele>
        <time>2011-10-30 08:26:34</time>
      </trkpt>
      <trkpt lat="45.31107" lon="1.14763">
        <ele>-0.91090181071149</ele>
        <time>2011-10-30 08:26:40</time>
      </trkpt>
      <trkpt lat="45.3111" lon="1.14709">
        <ele>-0.77908213272701</ele>
        <time>2011-10-30 08:26:51</time>
      </trkpt>
      <trkpt lat="45.31135" lon="1.14673">
        <ele>-1.0347572972256</ele>
        <time>2011-10-30 08:30:25</time>
      </trkpt>
      <trkpt lat="45.31166" lon="1.14645">
        <ele>-1.1580288656137</ele>
        <time>2011-10-30 08:30:50</time>
      </trkpt>
      <trkpt lat="45.31173" lon="1.14592">
        <ele>-0.29649876985309</ele>
        <time>2011-10-30 08:31:01</time>
      </trkpt>
      <trkpt lat="45.31168" lon="1.14541">
        <ele>-0.18165065358642</ele>
        <time>2011-10-30 08:31:09</time>
      </trkpt>
      <trkpt lat="45.31166" lon="1.14488">
        <ele>-0.78003434288439</ele>
        <time>2011-10-30 08:31:18</time>
      </trkpt>
      <trkpt lat="45.31187" lon="1.14445">
        <ele>-1.1311637877166</ele>
        <time>2011-10-30 08:31:27</time>
      </trkpt>
      <trkpt lat="45.31223" lon="1.1442">
        <ele>-1.1919254829063</ele>
        <time>2011-10-30 08:31:36</time>
      </trkpt>
      <trkpt lat="45.31254" lon="1.14388">
        <ele>-0.6591131362768</ele>
        <time>2011-10-30 08:31:44</time>
      </trkpt>
      <trkpt lat="45.31282" lon="1.14348">
        <ele>-0.92987287141443</ele>
        <time>2011-10-30 08:31:54</time>
      </trkpt>
      <trkpt lat="45.31303" lon="1.143">
        <ele>-0.6388140813574</ele>
        <time>2011-10-30 08:32:02</time>
      </trkpt>
      <trkpt lat="45.31317" lon="1.14251">
        <ele>-0.37762579720936</ele>
        <time>2011-10-30 08:32:09</time>
      </trkpt>
      <trkpt lat="45.3133" lon="1.14198">
        <ele>-0.88579329996003</ele>
        <time>2011-10-30 08:32:17</time>
      </trkpt>
      <trkpt lat="45.31354" lon="1.14155">
        <ele>-0.51015358821996</ele>
        <time>2011-10-30 08:32:23</time>
      </trkpt>
      <trkpt lat="45.31367" lon="1.14103">
        <ele>-1.009768567808</ele>
        <time>2011-10-30 08:32:31</time>
      </trkpt>
      <trkpt lat="45.31397" lon="1.14073">
        <ele>-0.45346971733068</ele>
        <time>2011-10-30 08:32:55</time>
      </trkpt>
      <trkpt lat="45.31368" lon="1.14039">
        <ele>-0.29069301236541</ele>
        <time>2011-10-30 08:33:17</time>
      </trkpt>
      <trkpt lat="45.31368" lon="1.1409">
        <ele>-0.43283866465629</ele>
        <time>2011-10-30 08:33:49</time>
      </trkpt>
      <trkpt lat="45.31346" lon="1.14135">
        <ele>-0.7826192198354</ele>
        <time>2011-10-30 08:34:04</time>
      </trkpt>
      <trkpt lat="45.31326" lon="1.14178">
        <ele>-1.1363162061242</ele>
        <time>2011-10-30 08:34:20</time>
      </trkpt>
      <trkpt lat="45.31301" lon="1.14217">
        <ele>-0.14898537895988</ele>
        <time>2011-10-30 08:34:42</time>
      </trkpt>
      <trkpt lat="45.31269" lon="1.14192">
        <ele>-0.61090620904679</ele>
        <time>2011-10-30 08:35:01</time>
      </trkpt>
      <trkpt lat="45.31233" lon="1.14174">
        <ele>-0.31266960484356</ele>
        <time>2011-10-30 08:35:15</time>
      </trkpt>
      <trkpt lat="45.31195" lon="1.1417">
        <ele>-0.58527844493267</ele>
        <time>2011-10-30 08:35:30</time>
      </trkpt>
      <trkpt lat="45.31156" lon="1.1416">
        <ele>-0.21617128827893</ele>
        <time>2011-10-30 08:35:48</time>
      </trkpt>
      <trkpt lat="45.31121" lon="1.14151">
        <ele>-0.53243912940854</ele>
        <time>2011-10-30 08:36:04</time>
      </trkpt>
      <trkpt lat="45.31084" lon="1.14169">
        <ele>-0.55532255148614</ele>
        <time>2011-10-30 08:36:20</time>
      </trkpt>
      <trkpt lat="45.31052" lon="1.14199">
        <ele>-1.1136383273407</ele>
        <time>2011-10-30 08:36:34</time>
      </trkpt>
      <trkpt lat="45.31022" lon="1.1423">
        <ele>-0.23881423381465</ele>
        <time>2011-10-30 08:36:45</time>
      </trkpt>
      <trkpt lat="45.30991" lon="1.14259">
        <ele>-0.81460745940012</ele>
        <time>2011-10-30 08:36:55</time>
      </trkpt>
      <trkpt lat="45.30956" lon="1.14277">
        <ele>-0.81873478947921</ele>
        <time>2011-10-30 08:37:08</time>
      </trkpt>
      <trkpt lat="45.3092" lon="1.14293">
        <ele>-0.8527175528726</ele>
        <time>2011-10-30 08:37:21</time>
      </trkpt>
      <trkpt lat="45.30885" lon="1.14304">
        <ele>-0.93873326640505</ele>
        <time>2011-10-30 08:37:31</time>
      </trkpt>
      <trkpt lat="45.30847" lon="1.14311">
        <ele>-0.37881062555982</ele>
        <time>2011-10-30 08:37:41</time>
      </trkpt>
      <trkpt lat="45.30809" lon="1.14322">
        <ele>-0.48195340855125</ele>
        <time>2011-10-30 08:37:51</time>
      </trkpt>
      <trkpt lat="45.3078" lon="1.14358">
        <ele>-0.25276271302801</ele>
        <time>2011-10-30 08:38:02</time>
      </trkpt>
      <trkpt lat="45.30802" lon="1.14399">
        <ele>-1.0806568859422</ele>
        <time>2011-10-30 08:38:11</time>
      </trkpt>
      <trkpt lat="45.30822" lon="1.14444">
        <ele>-1.1704823278723</ele>
        <time>2011-10-30 08:38:21</time>
      </trkpt>
      <trkpt lat="45.3079" lon="1.1447">
        <ele>-1.0673732515735</ele>
        <time>2011-10-30 08:38:34</time>
      </trkpt>
      <trkpt lat="45.30753" lon="1.14456">
        <ele>-0.74380446422083</ele>
        <time>2011-10-30 08:38:49</time>
      </trkpt>
      <trkpt lat="45.30718" lon="1.14438">
        <ele>-0.42852490976998</ele>
        <time>2011-10-30 08:39:04</time>
      </trkpt>
      <trkpt lat="45.30681" lon="1.14443">
        <ele>-0.59704168604537</ele>
        <time>2011-10-30 08:39:21</time>
      </trkpt>
      <trkpt lat="45.30645" lon="1.14452">
        <ele>-0.69928595527097</ele>
        <time>2011-10-30 08:39:40</time>
      </trkpt>
      <trkpt lat="45.30608" lon="1.14455">
        <ele>-0.88525458167066</ele>
        <time>2011-10-30 08:39:56</time>
      </trkpt>
      <trkpt lat="45.30571" lon="1.14458">
        <ele>-0.35762298098677</ele>
        <time>2011-10-30 08:40:14</time>
      </trkpt>
      <trkpt lat="45.30549" lon="1.14505">
        <ele>-0.67703053786408</ele>
        <time>2011-10-30 08:40:32</time>
      </trkpt>
      <trkpt lat="45.30533" lon="1.14553">
        <ele>-0.94323168489495</ele>
        <time>2011-10-30 08:40:47</time>
      </trkpt>
      <trkpt lat="45.30507" lon="1.14594">
        <ele>-0.65038329216031</ele>
        <time>2011-10-30 08:41:00</time>
      </trkpt>
      <trkpt lat="45.30483" lon="1.14634">
        <ele>-1.0472648751426</ele>
        <time>2011-10-30 08:41:14</time>
      </trkpt>
      <trkpt lat="45.3046" lon="1.14677">
        <ele>-0.71031235152987</ele>
        <time>2011-10-30 08:41:29</time>
      </trkpt>
      <trkpt lat="45.30443" lon="1.14725">
        <ele>-0.97576864555515</ele>
        <time>2011-10-30 08:41:45</time>
      </trkpt>
      <trkpt lat="45.30406" lon="1.14727">
        <ele>-1.1684712118791</ele>
        <time>2011-10-30 08:42:00</time>
      </trkpt>
      <trkpt lat="45.30368" lon="1.1472">
        <ele>-0.050335273983705</ele>
        <time>2011-10-30 08:42:16</time>
      </trkpt>
      <trkpt lat="45.30332" lon="1.14714">
        <ele>-1.0345095165277</ele>
        <time>2011-10-30 08:42:32</time>
      </trkpt>
      <trkpt lat="45.30294" lon="1.14713">
        <ele>-0.54902151578142</ele>
        <time>2011-10-30 08:42:48</time>
      </trkpt>
      <trkpt lat="45.30258" lon="1.14715">
        <ele>-0.74066136961449</ele>
        <time>2011-10-30 08:43:01</time>
      </trkpt>
      <trkpt lat="45.30221" lon="1.14725">
        <ele>-0.83541656283637</ele>
        <time>2011-10-30 08:43:12</time>
      </trkpt>
      <trkpt lat="45.30185" lon="1.1474">
        <ele>-0.88191306376314</ele>
        <time>2011-10-30 08:43:20</time>
      </trkpt>
      <trkpt lat="45.30146" lon="1.14747">
        <ele>-0.32047837017114</ele>
        <time>2011-10-30 08:43:28</time>
      </trkpt>
      <trkpt lat="45.30108" lon="1.14744">
        <ele>-0.57702684068318</ele>
        <time>2011-10-30 08:43:35</time>
      </trkpt>
      <trkpt lat="45.30066" lon="1.14738">
        <ele>-0.8805452797842</ele>
        <time>2011-10-30 08:43:46</time>
      </trkpt>
      <trkpt lat="45.30032" lon="1.14708">
        <ele>-0.69798869786314</ele>
        <time>2011-10-30 08:43:57</time>
      </trkpt>
      <trkpt lat="45.29998" lon="1.14689">
        <ele>-0.39608016252032</ele>
        <time>2011-10-30 08:44:03</time>
      </trkpt>
      <trkpt lat="45.29962" lon="1.14701">
        <ele>-1.1709442054995</ele>
        <time>2011-10-30 08:44:15</time>
      </trkpt>
      <trkpt lat="45.29936" lon="1.14738">
        <ele>-0.21543928610765</ele>
        <time>2011-10-30 08:46:41</time>
      </trkpt>
      <trkpt lat="45.29907" lon="1.14769">
        <ele>-0.73065924722448</ele>
        <time>2011-10-30 08:46:49</time>
      </trkpt>
      <trkpt lat="45.29876" lon="1.14804">
        <ele>-0.52101720888084</ele>
        <time>2011-10-30 08:46:56</time>
      </trkpt>
      <trkpt lat="45.29845" lon="1.1484">
        <ele>-1.0005048195197</ele>
        <time>2011-10-30 08:47:03</time>
      </trkpt>
      <trkpt lat="45.29815" lon="1.14882">
        <ele>-0.70640165060843</ele>
        <time>2011-10-30 08:47:09</time>
      </trkpt>
      <trkpt lat="45.29793" lon="1.14922">
        <ele>-0.38837798696727</ele>
        <time>2011-10-30 08:47:13</time>
      </trkpt>
      <trkpt lat="45.29769" lon="1.14965">
        <ele>-0.75498609229078</ele>
        <time>2011-10-30 08:47:18</time>
      </trkpt>
      <trkpt lat="45.29732" lon="1.14955">
        <ele>-1.0658640928984</ele>
        <time>2011-10-30 08:47:24</time>
      </trkpt>
      <trkpt lat="45.29693" lon="1.14938">
        <ele>-0.071002874082978</ele>
        <time>2011-10-30 08:47:29</time>
      </trkpt>
      <trkpt lat="45.29655" lon="1.14922">
        <ele>-1.1689770771222</ele>
        <time>2011-10-30 08:47:33</time>
      </trkpt>
      <trkpt lat="45.29621" lon="1.14906">
        <ele>-0.82873373498114</ele>
        <time>2011-10-30 08:47:37</time>
      </trkpt>
      <trkpt lat="45.29596" lon="1.14863">
        <ele>-0.73952947747739</ele>
        <time>2011-10-30 08:47:42</time>
      </trkpt>
      <trkpt lat="45.29596" lon="1.14807">
        <ele>-0.65199065439663</ele>
        <time>2011-10-30 08:47:47</time>
      </trkpt>
      <trkpt lat="45.29615" lon="1.14754">
        <ele>-0.434578308087</ele>
        <time>2011-10-30 08:47:52</time>
      </trkpt>
      <trkpt lat="45.29621" lon="1.14701">
        <ele>-0.99008876500477</ele>
        <time>2011-10-30 08:47:57</time>
      </trkpt>
      <trkpt lat="45.29608" lon="1.14639">
        <ele>-1.0397398249324</ele>
        <time>2011-10-30 08:48:02</time>
      </trkpt>
      <trkpt lat="45.29598" lon="1.14585">
        <ele>-0.9837369636607</ele>
        <time>2011-10-30 08:48:06</time>
      </trkpt>
      <trkpt lat="45.29587" lon="1.14532">
        <ele>-0.93732558413706</ele>
        <time>2011-10-30 08:48:10</time>
      </trkpt>
      <trkpt lat="45.2958" lon="1.14475">
        <ele>-0.89009263537969</ele>
        <time>2011-10-30 08:48:14</time>
      </trkpt>
      <trkpt lat="45.29577" lon="1.14415">
        <ele>-0.86251571147238</ele>
        <time>2011-10-30 08:48:18</time>
      </trkpt>
      <trkpt lat="45.29566" lon="1.14358">
        <ele>-0.86331374842223</ele>
        <time>2011-10-30 08:48:23</time>
      </trkpt>
      <trkpt lat="45.2955" lon="1.14306">
        <ele>-0.80449920346257</ele>
        <time>2011-10-30 08:48:31</time>
      </trkpt>
      <trkpt lat="45.29541" lon="1.14255">
        <ele>-0.71760347467966</ele>
        <time>2011-10-30 08:48:38</time>
      </trkpt>
      <trkpt lat="45.29531" lon="1.14199">
        <ele>-0.69622300307458</ele>
        <time>2011-10-30 08:48:43</time>
      </trkpt>
      <trkpt lat="45.29519" lon="1.14146">
        <ele>-0.63417723429927</ele>
        <time>2011-10-30 08:48:47</time>
      </trkpt>
      <trkpt lat="45.29499" lon="1.14091">
        <ele>-0.64291824925374</ele>
        <time>2011-10-30 08:48:52</time>
      </trkpt>
      <trkpt lat="45.29501" lon="1.14039">
        <ele>-0.501652629761</ele>
        <time>2011-10-30 08:48:56</time>
      </trkpt>
      <trkpt lat="45.29517" lon="1.13982">
        <ele>-1.0409409740242</ele>
        <time>2011-10-30 08:49:01</time>
      </trkpt>
      <trkpt lat="45.29531" lon="1.13931">
        <ele>-0.81950960302106</ele>
        <time>2011-10-30 08:49:06</time>
      </trkpt>
      <trkpt lat="45.29544" lon="1.13877">
        <ele>-1.3492948317794</ele>
        <time>2011-10-30 08:49:13</time>
      </trkpt>
      <trkpt lat="45.29563" lon="1.1383">
        <ele>-1.0494065351959</ele>
        <time>2011-10-30 08:49:19</time>
      </trkpt>
      <trkpt lat="45.29578" lon="1.13771">
        <ele>-0.19828905172471</ele>
        <time>2011-10-30 08:49:25</time>
      </trkpt>
      <trkpt lat="45.29591" lon="1.13718">
        <ele>-0.70953640221728</ele>
        <time>2011-10-30 08:49:30</time>
      </trkpt>
      <trkpt lat="45.2961" lon="1.1366">
        <ele>-0.53123851271005</ele>
        <time>2011-10-30 08:49:35</time>
      </trkpt>
      <trkpt lat="45.29637" lon="1.1362">
        <ele>-0.82282353096218</ele>
        <time>2011-10-30 08:49:40</time>
      </trkpt>
      <trkpt lat="45.29662" lon="1.13579">
        <ele>-0.41410509749562</ele>
        <time>2011-10-30 08:49:46</time>
      </trkpt>
      <trkpt lat="45.2969" lon="1.13542">
        <ele>-0.67918719083571</ele>
        <time>2011-10-30 08:49:54</time>
      </trkpt>
      <trkpt lat="45.29712" lon="1.13499">
        <ele>-1.0303376528466</ele>
        <time>2011-10-30 08:50:01</time>
      </trkpt>
      <trkpt lat="45.29736" lon="1.13452">
        <ele>-0.69462012576355</ele>
        <time>2011-10-30 08:50:09</time>
      </trkpt>
      <trkpt lat="45.29751" lon="1.13403">
        <ele>-0.44952371528552</ele>
        <time>2011-10-30 08:50:16</time>
      </trkpt>
      <trkpt lat="45.2977" lon="1.13353">
        <ele>-0.87736356386654</ele>
        <time>2011-10-30 08:50:22</time>
      </trkpt>
      <trkpt lat="45.29761" lon="1.13302">
        <ele>-0.084409671202252</ele>
        <time>2011-10-30 08:50:29</time>
      </trkpt>
      <trkpt lat="45.2973" lon="1.13267">
        <ele>-0.63606551318787</ele>
        <time>2011-10-30 08:50:34</time>
      </trkpt>
      <trkpt lat="45.29697" lon="1.13229">
        <ele>-0.52685905014278</ele>
        <time>2011-10-30 08:50:38</time>
      </trkpt>
      <trkpt lat="45.29666" lon="1.13189">
        <ele>-0.43605010976933</ele>
        <time>2011-10-30 08:50:43</time>
      </trkpt>
      <trkpt lat="45.29641" lon="1.13151">
        <ele>-0.99667816100066</ele>
        <time>2011-10-30 08:50:48</time>
      </trkpt>
      <trkpt lat="45.29622" lon="1.13103">
        <ele>-0.92122336997568</ele>
        <time>2011-10-30 08:50:53</time>
      </trkpt>
      <trkpt lat="45.29607" lon="1.13053">
        <ele>-0.14348709045419</ele>
        <time>2011-10-30 08:50:58</time>
      </trkpt>
      <trkpt lat="45.29591" lon="1.13004">
        <ele>-0.76243203744036</ele>
        <time>2011-10-30 08:51:03</time>
      </trkpt>
      <trkpt lat="45.29574" lon="1.12953">
        <ele>-0.71319748574354</ele>
        <time>2011-10-30 08:51:08</time>
      </trkpt>
      <trkpt lat="45.29555" lon="1.12904">
        <ele>-1.3621956522738</ele>
        <time>2011-10-30 08:51:13</time>
      </trkpt>
      <trkpt lat="45.2953" lon="1.12861">
        <ele>-0.55437022660112</ele>
        <time>2011-10-30 08:51:18</time>
      </trkpt>
      <trkpt lat="45.29507" lon="1.12815">
        <ele>-1.1842322445912</ele>
        <time>2011-10-30 08:51:24</time>
      </trkpt>
      <trkpt lat="45.29492" lon="1.12766">
        <ele>-0.38749479992055</ele>
        <time>2011-10-30 08:51:30</time>
      </trkpt>
      <trkpt lat="45.29478" lon="1.12715">
        <ele>-1.027629794226</ele>
        <time>2011-10-30 08:51:36</time>
      </trkpt>
      <trkpt lat="45.2947" lon="1.1266">
        <ele>-0.24928107555536</ele>
        <time>2011-10-30 08:51:44</time>
      </trkpt>
      <trkpt lat="45.29463" lon="1.12603">
        <ele>-0.91755873831596</ele>
        <time>2011-10-30 08:51:52</time>
      </trkpt>
      <trkpt lat="45.29477" lon="1.12554">
        <ele>-0.65665379069821</ele>
        <time>2011-10-30 08:51:59</time>
      </trkpt>
      <trkpt lat="45.29507" lon="1.12522">
        <ele>-0.85173660242822</ele>
        <time>2011-10-30 08:52:06</time>
      </trkpt>
      <trkpt lat="45.29493" lon="1.12474">
        <ele>-0.74011553662069</ele>
        <time>2011-10-30 08:52:13</time>
      </trkpt>
      <trkpt lat="45.2947" lon="1.12425">
        <ele>-0.69093981668584</ele>
        <time>2011-10-30 08:52:20</time>
      </trkpt>
      <trkpt lat="45.29449" lon="1.12379">
        <ele>-0.59867774187319</ele>
        <time>2011-10-30 08:52:26</time>
      </trkpt>
      <trkpt lat="45.29427" lon="1.1233">
        <ele>-0.54545310685853</ele>
        <time>2011-10-30 08:52:32</time>
      </trkpt>
      <trkpt lat="45.29416" lon="1.12271">
        <ele>-0.54721018155726</ele>
        <time>2011-10-30 08:52:39</time>
      </trkpt>
      <trkpt lat="45.29409" lon="1.12218">
        <ele>-0.46313038633446</ele>
        <time>2011-10-30 08:52:45</time>
      </trkpt>
      <trkpt lat="45.29412" lon="1.1216">
        <ele>-1.0620937673207</ele>
        <time>2011-10-30 08:52:51</time>
      </trkpt>
      <trkpt lat="45.29415" lon="1.12109">
        <ele>-0.89738860624357</ele>
        <time>2011-10-30 08:52:56</time>
      </trkpt>
      <trkpt lat="45.2942" lon="1.12051">
        <ele>-0.085723982053082</ele>
        <time>2011-10-30 08:53:02</time>
      </trkpt>
      <trkpt lat="45.29423" lon="1.12">
        <ele>-0.62446871001043</ele>
        <time>2011-10-30 08:53:07</time>
      </trkpt>
      <trkpt lat="45.29409" lon="1.1195">
        <ele>-0.53704885456102</ele>
        <time>2011-10-30 08:53:13</time>
      </trkpt>
      <trkpt lat="45.29391" lon="1.119">
        <ele>-0.46997245178625</ele>
        <time>2011-10-30 08:53:20</time>
      </trkpt>
      <trkpt lat="45.29368" lon="1.1186">
        <ele>-1.0406846874996</ele>
        <time>2011-10-30 08:53:26</time>
      </trkpt>
      <trkpt lat="45.29339" lon="1.11825">
        <ele>-0.16275119122406</ele>
        <time>2011-10-30 08:53:32</time>
      </trkpt>
      <trkpt lat="45.29305" lon="1.11795">
        <ele>-0.67792140704876</ele>
        <time>2011-10-30 08:53:38</time>
      </trkpt>
      <trkpt lat="45.29267" lon="1.11771">
        <ele>-1.1438811358042</ele>
        <time>2011-10-30 08:53:44</time>
      </trkpt>
      <trkpt lat="45.29231" lon="1.11751">
        <ele>-0.14773126785894</ele>
        <time>2011-10-30 08:53:49</time>
      </trkpt>
      <trkpt lat="45.29193" lon="1.11729">
        <ele>-0.59531749673852</ele>
        <time>2011-10-30 08:53:54</time>
      </trkpt>
      <trkpt lat="45.29156" lon="1.11706">
        <ele>-1.0488501212423</ele>
        <time>2011-10-30 08:53:59</time>
      </trkpt>
      <trkpt lat="45.29119" lon="1.11683">
        <ele>-0.79649972900893</ele>
        <time>2011-10-30 08:54:05</time>
      </trkpt>
      <trkpt lat="45.29086" lon="1.11658">
        <ele>-0.5511088106789</ele>
        <time>2011-10-30 08:54:11</time>
      </trkpt>
      <trkpt lat="45.29048" lon="1.11641">
        <ele>-0.94596067097132</ele>
        <time>2011-10-30 08:54:18</time>
      </trkpt>
      <trkpt lat="45.29013" lon="1.11627">
        <ele>-0.57288282026889</ele>
        <time>2011-10-30 08:54:24</time>
      </trkpt>
      <trkpt lat="45.28994" lon="1.11575">
        <ele>-0.54255256744489</ele>
        <time>2011-10-30 08:54:32</time>
      </trkpt>
      <trkpt lat="45.28989" lon="1.11522">
        <ele>-1.1384312666722</ele>
        <time>2011-10-30 08:54:41</time>
      </trkpt>
      <trkpt lat="45.2902" lon="1.11493">
        <ele>-0.56052293387961</ele>
        <time>2011-10-30 08:54:47</time>
      </trkpt>
      <trkpt lat="45.29049" lon="1.11461">
        <ele>-0.75978104456522</ele>
        <time>2011-10-30 08:54:52</time>
      </trkpt>
      <trkpt lat="45.29075" lon="1.11419">
        <ele>-1.0608269413325</ele>
        <time>2011-10-30 08:54:57</time>
      </trkpt>
      <trkpt lat="45.29095" lon="1.1137">
        <ele>-0.77841152507858</ele>
        <time>2011-10-30 08:55:02</time>
      </trkpt>
      <trkpt lat="45.29112" lon="1.11322">
        <ele>-1.202167526408</ele>
        <time>2011-10-30 08:55:07</time>
      </trkpt>
      <trkpt lat="45.29128" lon="1.11275">
        <ele>-0.210123380965</ele>
        <time>2011-10-30 08:55:12</time>
      </trkpt>
      <trkpt lat="45.2915" lon="1.11224">
        <ele>-0.62559136751167</ele>
        <time>2011-10-30 08:55:18</time>
      </trkpt>
      <trkpt lat="45.29181" lon="1.11185">
        <ele>-0.87597385394849</ele>
        <time>2011-10-30 08:55:24</time>
      </trkpt>
      <trkpt lat="45.29214" lon="1.11154">
        <ele>-1.0223435817817</ele>
        <time>2011-10-30 08:55:30</time>
      </trkpt>
      <trkpt lat="45.29246" lon="1.1112">
        <ele>-0.50366301119334</ele>
        <time>2011-10-30 08:55:37</time>
      </trkpt>
      <trkpt lat="45.29276" lon="1.11093">
        <ele>-0.63272858144967</ele>
        <time>2011-10-30 08:55:43</time>
      </trkpt>
      <trkpt lat="45.29312" lon="1.11075">
        <ele>-0.63294650472392</ele>
        <time>2011-10-30 08:55:50</time>
      </trkpt>
      <trkpt lat="45.29333" lon="1.11117">
        <ele>-0.76281306446469</ele>
        <time>2011-10-30 08:55:56</time>
      </trkpt>
      <trkpt lat="45.29352" lon="1.11168">
        <ele>-0.81098413855102</ele>
        <time>2011-10-30 08:56:03</time>
      </trkpt>
      <trkpt lat="45.2937" lon="1.11218">
        <ele>-0.88025286435754</ele>
        <time>2011-10-30 08:56:10</time>
      </trkpt>
      <trkpt lat="45.29387" lon="1.11269">
        <ele>-0.24554719507739</ele>
        <time>2011-10-30 08:56:18</time>
      </trkpt>
      <trkpt lat="45.29401" lon="1.11321">
        <ele>-1.0165754848059</ele>
        <time>2011-10-30 08:56:26</time>
      </trkpt>
      <trkpt lat="45.29412" lon="1.1137">
        <ele>-1.1307195977164</ele>
        <time>2011-10-30 08:56:33</time>
      </trkpt>
      <trkpt lat="45.29426" lon="1.1142">
        <ele>-0.51599743479812</ele>
        <time>2011-10-30 08:56:40</time>
      </trkpt>
      <trkpt lat="45.2944" lon="1.1147">
        <ele>-0.6048653006751</ele>
        <time>2011-10-30 08:56:47</time>
      </trkpt>
      <trkpt lat="45.29459" lon="1.11521">
        <ele>-0.65161461611933</ele>
        <time>2011-10-30 08:56:55</time>
      </trkpt>
      <trkpt lat="45.29477" lon="1.11567">
        <ele>-0.75328068276485</ele>
        <time>2011-10-30 08:57:04</time>
      </trkpt>
      <trkpt lat="45.29497" lon="1.11615">
        <ele>-0.84315582855902</ele>
        <time>2011-10-30 08:57:16</time>
      </trkpt>
      <trkpt lat="45.29515" lon="1.11659">
        <ele>-0.26285794686703</ele>
        <time>2011-10-30 08:57:25</time>
      </trkpt>
      <trkpt lat="45.29522" lon="1.11712">
        <ele>-1.0620186275493</ele>
        <time>2011-10-30 08:57:34</time>
      </trkpt>
      <trkpt lat="45.29541" lon="1.11764">
        <ele>-0.39424014117412</ele>
        <time>2011-10-30 08:57:43</time>
      </trkpt>
      <trkpt lat="45.29546" lon="1.11817">
        <ele>-0.49292042119339</ele>
        <time>2011-10-30 08:57:51</time>
      </trkpt>
      <trkpt lat="45.2954" lon="1.11765">
        <ele>-1.0935976362007</ele>
        <time>2011-10-30 08:58:40</time>
      </trkpt>
      <trkpt lat="45.29525" lon="1.11711">
        <ele>-0.34564827876602</ele>
        <time>2011-10-30 08:58:51</time>
      </trkpt>
      <trkpt lat="45.29513" lon="1.11657">
        <ele>-1.0013892574038</ele>
        <time>2011-10-30 08:59:00</time>
      </trkpt>
      <trkpt lat="45.29493" lon="1.1161">
        <ele>-0.20793158459003</ele>
        <time>2011-10-30 08:59:08</time>
      </trkpt>
      <trkpt lat="45.29475" lon="1.11562">
        <ele>-0.83156763549209</ele>
        <time>2011-10-30 08:59:15</time>
      </trkpt>
      <trkpt lat="45.29457" lon="1.11517">
        <ele>-0.70233589245879</ele>
        <time>2011-10-30 08:59:22</time>
      </trkpt>
      <trkpt lat="45.2944" lon="1.11471">
        <ele>-0.59687904754128</ele>
        <time>2011-10-30 08:59:29</time>
      </trkpt>
      <trkpt lat="45.29426" lon="1.11416">
        <ele>-0.55949923785045</ele>
        <time>2011-10-30 08:59:37</time>
      </trkpt>
      <trkpt lat="45.29413" lon="1.11367">
        <ele>-0.44909747798283</ele>
        <time>2011-10-30 08:59:45</time>
      </trkpt>
      <trkpt lat="45.29401" lon="1.11315">
        <ele>-0.36865251636266</ele>
        <time>2011-10-30 08:59:53</time>
      </trkpt>
      <trkpt lat="45.29386" lon="1.11269">
        <ele>-0.24913011935166</ele>
        <time>2011-10-30 09:00:02</time>
      </trkpt>
      <trkpt lat="45.29418" lon="1.11245">
        <ele>-0.32075214172915</ele>
        <time>2011-10-30 09:00:18</time>
      </trkpt>
      <trkpt lat="45.29453" lon="1.11227">
        <ele>-1.0372867717515</ele>
        <time>2011-10-30 09:00:28</time>
      </trkpt>
      <trkpt lat="45.29488" lon="1.11209">
        <ele>-1.0222829185345</ele>
        <time>2011-10-30 09:00:39</time>
      </trkpt>
      <trkpt lat="45.29522" lon="1.11191">
        <ele>-0.3210240268786</ele>
        <time>2011-10-30 09:00:50</time>
      </trkpt>
      <trkpt lat="45.29557" lon="1.11169">
        <ele>-1.0704618587786</ele>
        <time>2011-10-30 09:01:02</time>
      </trkpt>
      <trkpt lat="45.29592" lon="1.11148">
        <ele>-0.39078555757612</ele>
        <time>2011-10-30 09:01:14</time>
      </trkpt>
      <trkpt lat="45.29627" lon="1.11128">
        <ele>-0.41025554394139</ele>
        <time>2011-10-30 09:01:28</time>
      </trkpt>
      <trkpt lat="45.29661" lon="1.11109">
        <ele>-0.41173595719965</ele>
        <time>2011-10-30 09:01:41</time>
      </trkpt>
      <trkpt lat="45.29688" lon="1.11074">
        <ele>-0.63612245756531</ele>
        <time>2011-10-30 09:01:55</time>
      </trkpt>
      <trkpt lat="45.29695" lon="1.1102">
        <ele>-1.1847980913062</ele>
        <time>2011-10-30 09:02:05</time>
      </trkpt>
      <trkpt lat="45.29701" lon="1.10967">
        <ele>-0.30018298945936</ele>
        <time>2011-10-30 09:02:14</time>
      </trkpt>
      <trkpt lat="45.29705" lon="1.10915">
        <ele>-0.83993719664659</ele>
        <time>2011-10-30 09:02:24</time>
      </trkpt>
      <trkpt lat="45.29716" lon="1.10862">
        <ele>-0.64224471517673</ele>
        <time>2011-10-30 09:02:37</time>
      </trkpt>
      <trkpt lat="45.29732" lon="1.10814">
        <ele>-1.0662279831442</ele>
        <time>2011-10-30 09:02:47</time>
      </trkpt>
      <trkpt lat="45.29747" lon="1.10766">
        <ele>-0.7961024401618</ele>
        <time>2011-10-30 09:02:55</time>
      </trkpt>
      <trkpt lat="45.29767" lon="1.10723">
        <ele>-0.43049451302602</ele>
        <time>2011-10-30 09:03:02</time>
      </trkpt>
      <trkpt lat="45.29789" lon="1.10677">
        <ele>-0.086666888945615</ele>
        <time>2011-10-30 09:03:11</time>
      </trkpt>
      <trkpt lat="45.29817" lon="1.10641">
        <ele>-0.32354630997895</ele>
        <time>2011-10-30 09:03:19</time>
      </trkpt>
      <trkpt lat="45.29821" lon="1.10587">
        <ele>-0.8701658359854</ele>
        <time>2011-10-30 09:03:28</time>
      </trkpt>
      <trkpt lat="45.29803" lon="1.10542">
        <ele>-0.74945483682791</ele>
        <time>2011-10-30 09:03:35</time>
      </trkpt>
      <trkpt lat="45.29792" lon="1.10492">
        <ele>-0.64184407240941</ele>
        <time>2011-10-30 09:03:45</time>
      </trkpt>
      <trkpt lat="45.29755" lon="1.10485">
        <ele>-0.92485641977589</ele>
        <time>2011-10-30 09:04:05</time>
      </trkpt>
      <trkpt lat="45.29722" lon="1.10509">
        <ele>-0.15261274977479</ele>
        <time>2011-10-30 09:04:15</time>
      </trkpt>
      <trkpt lat="45.29685" lon="1.10528">
        <ele>-0.8589248700822</ele>
        <time>2011-10-30 09:04:25</time>
      </trkpt>
      <trkpt lat="45.29649" lon="1.10548">
        <ele>-0.85392556816703</ele>
        <time>2011-10-30 09:04:33</time>
      </trkpt>
      <trkpt lat="45.29613" lon="1.10564">
        <ele>-0.88220001854495</ele>
        <time>2011-10-30 09:04:40</time>
      </trkpt>
      <trkpt lat="45.29576" lon="1.10582">
        <ele>-0.89799498756759</ele>
        <time>2011-10-30 09:04:47</time>
      </trkpt>
      <trkpt lat="45.2954" lon="1.10598">
        <ele>-0.92573381320153</ele>
        <time>2011-10-30 09:04:53</time>
      </trkpt>
      <trkpt lat="45.29506" lon="1.10619">
        <ele>-0.89834725374544</ele>
        <time>2011-10-30 09:04:58</time>
      </trkpt>
      <trkpt lat="45.29469" lon="1.10631">
        <ele>-0.97250099701455</ele>
        <time>2011-10-30 09:05:03</time>
      </trkpt>
      <trkpt lat="45.29432" lon="1.10632">
        <ele>-0.46902890076637</ele>
        <time>2011-10-30 09:05:10</time>
      </trkpt>
      <trkpt lat="45.29396" lon="1.10643">
        <ele>-0.5469942314021</ele>
        <time>2011-10-30 09:05:28</time>
      </trkpt>
      <trkpt lat="45.29359" lon="1.10622">
        <ele>-0.27911278110048</ele>
        <time>2011-10-30 09:05:34</time>
      </trkpt>
      <trkpt lat="45.29325" lon="1.10585">
        <ele>-0.85156291728822</ele>
        <time>2011-10-30 09:05:39</time>
      </trkpt>
      <trkpt lat="45.29289" lon="1.10555">
        <ele>-0.67410200337281</ele>
        <time>2011-10-30 09:05:44</time>
      </trkpt>
      <trkpt lat="45.29256" lon="1.10528">
        <ele>-1.1478726663166</ele>
        <time>2011-10-30 09:05:49</time>
      </trkpt>
      <trkpt lat="45.29224" lon="1.10504">
        <ele>-0.87074428387712</ele>
        <time>2011-10-30 09:05:54</time>
      </trkpt>
      <trkpt lat="45.29188" lon="1.10475">
        <ele>-0.67474855325076</ele>
        <time>2011-10-30 09:06:00</time>
      </trkpt>
      <trkpt lat="45.29151" lon="1.10466">
        <ele>-0.27526076706806</ele>
        <time>2011-10-30 09:06:06</time>
      </trkpt>
      <trkpt lat="45.29119" lon="1.1044">
        <ele>-0.72681389497995</ele>
        <time>2011-10-30 09:06:12</time>
      </trkpt>
      <trkpt lat="45.29119" lon="1.10386">
        <ele>-0.59971594221247</ele>
        <time>2011-10-30 09:06:22</time>
      </trkpt>
      <trkpt lat="45.29123" lon="1.10334">
        <ele>-0.42467752154289</ele>
        <time>2011-10-30 09:06:41</time>
      </trkpt>
      <trkpt lat="45.29096" lon="1.10299">
        <ele>-0.94649834565928</ele>
        <time>2011-10-30 09:06:55</time>
      </trkpt>
      <trkpt lat="45.29068" lon="1.10267">
        <ele>-0.74221024557062</ele>
        <time>2011-10-30 09:07:07</time>
      </trkpt>
      <trkpt lat="45.29041" lon="1.10229">
        <ele>-0.58535953880505</ele>
        <time>2011-10-30 09:07:17</time>
      </trkpt>
      <trkpt lat="45.29013" lon="1.10193">
        <ele>-1.1277213255617</ele>
        <time>2011-10-30 09:07:25</time>
      </trkpt>
      <trkpt lat="45.28986" lon="1.10155">
        <ele>-0.97043537643719</ele>
        <time>2011-10-30 09:07:33</time>
      </trkpt>
      <trkpt lat="45.28961" lon="1.10117">
        <ele>-0.81734245910354</ele>
        <time>2011-10-30 09:07:40</time>
      </trkpt>
      <trkpt lat="45.28971" lon="1.10066">
        <ele>-0.59680121666827</ele>
        <time>2011-10-30 09:07:53</time>
      </trkpt>
      <trkpt lat="45.29003" lon="1.10042">
        <ele>-0.66939972485011</ele>
        <time>2011-10-30 09:08:02</time>
      </trkpt>
      <trkpt lat="45.29037" lon="1.10021">
        <ele>-0.69946398913032</ele>
        <time>2011-10-30 09:08:12</time>
      </trkpt>
      <trkpt lat="45.29072" lon="1.10004">
        <ele>-0.69584871302459</ele>
        <time>2011-10-30 09:08:21</time>
      </trkpt>
      <trkpt lat="45.29106" lon="1.09987">
        <ele>-0.6822040019016</ele>
        <time>2011-10-30 09:08:31</time>
      </trkpt>
      <trkpt lat="45.29142" lon="1.09968">
        <ele>-0.68245729401576</ele>
        <time>2011-10-30 09:08:41</time>
      </trkpt>
      <trkpt lat="45.29175" lon="1.09947">
        <ele>-0.72480556788423</ele>
        <time>2011-10-30 09:08:51</time>
      </trkpt>
      <trkpt lat="45.29206" lon="1.0992">
        <ele>-0.8426996591794</ele>
        <time>2011-10-30 09:09:02</time>
      </trkpt>
      <trkpt lat="45.29229" lon="1.09878">
        <ele>-0.45241118682134</ele>
        <time>2011-10-30 09:09:13</time>
      </trkpt>
      <trkpt lat="45.29244" lon="1.09829">
        <ele>-0.18907725744089</ele>
        <time>2011-10-30 09:09:23</time>
      </trkpt>
      <trkpt lat="45.29261" lon="1.09778">
        <ele>-0.6336809078731</ele>
        <time>2011-10-30 09:09:33</time>
      </trkpt>
      <trkpt lat="45.29279" lon="1.0973">
        <ele>-0.33545445024163</ele>
        <time>2011-10-30 09:09:44</time>
      </trkpt>
      <trkpt lat="45.29309" lon="1.09699">
        <ele>-1.2028818895803</ele>
        <time>2011-10-30 09:09:55</time>
      </trkpt>
      <trkpt lat="45.29343" lon="1.09682">
        <ele>-1.197138680623</ele>
        <time>2011-10-30 09:10:06</time>
      </trkpt>
      <trkpt lat="45.29379" lon="1.09671">
        <ele>-1.1091804027673</ele>
        <time>2011-10-30 09:10:17</time>
      </trkpt>
      <trkpt lat="45.29416" lon="1.09674">
        <ele>-0.87228753031945</ele>
        <time>2011-10-30 09:10:28</time>
      </trkpt>
      <trkpt lat="45.29455" lon="1.0968">
        <ele>-1.3000313073221</ele>
        <time>2011-10-30 09:10:42</time>
      </trkpt>
      <trkpt lat="45.29474" lon="1.09637">
        <ele>-0.229173774336</ele>
        <time>2011-10-30 09:11:06</time>
      </trkpt>
      <trkpt lat="45.29443" lon="1.09603">
        <ele>-0.767699328356</ele>
        <time>2011-10-30 09:11:26</time>
      </trkpt>
      <trkpt lat="45.29406" lon="1.09585">
        <ele>-1.1674348813518</ele>
        <time>2011-10-30 09:11:35</time>
      </trkpt>
      <trkpt lat="45.29377" lon="1.0955">
        <ele>-0.28523708759542</ele>
        <time>2011-10-30 09:11:43</time>
      </trkpt>
      <trkpt lat="45.29362" lon="1.095">
        <ele>-0.89815360396699</ele>
        <time>2011-10-30 09:11:54</time>
      </trkpt>
      <trkpt lat="45.29338" lon="1.0946">
        <ele>-0.74978292811102</ele>
        <time>2011-10-30 09:12:05</time>
      </trkpt>
      <trkpt lat="45.29302" lon="1.09428">
        <ele>-0.57835187169883</ele>
        <time>2011-10-30 09:12:12</time>
      </trkpt>
      <trkpt lat="45.29265" lon="1.09425">
        <ele>-0.81438728014734</ele>
        <time>2011-10-30 09:12:18</time>
      </trkpt>
      <trkpt lat="45.29227" lon="1.09428">
        <ele>-0.99494260905033</ele>
        <time>2011-10-30 09:12:25</time>
      </trkpt>
      <trkpt lat="45.29202" lon="1.09391">
        <ele>-0.11650702012389</ele>
        <time>2011-10-30 09:12:33</time>
      </trkpt>
      <trkpt lat="45.29173" lon="1.09357">
        <ele>-1.339901475834</ele>
        <time>2011-10-30 09:12:39</time>
      </trkpt>
      <trkpt lat="45.29141" lon="1.0933">
        <ele>-0.39994247015568</ele>
        <time>2011-10-30 09:12:44</time>
      </trkpt>
      <trkpt lat="45.29101" lon="1.09298">
        <ele>-0.24721002736305</ele>
        <time>2011-10-30 09:12:49</time>
      </trkpt>
      <trkpt lat="45.29069" lon="1.09266">
        <ele>-0.76523049056482</ele>
        <time>2011-10-30 09:12:53</time>
      </trkpt>
      <trkpt lat="45.29035" lon="1.09229">
        <ele>-0.62917919609231</ele>
        <time>2011-10-30 09:12:58</time>
      </trkpt>
      <trkpt lat="45.29004" lon="1.09202">
        <ele>-0.388495138498</ele>
        <time>2011-10-30 09:13:03</time>
      </trkpt>
      <trkpt lat="45.28968" lon="1.09169">
        <ele>-0.9259520870163</ele>
        <time>2011-10-30 09:13:10</time>
      </trkpt>
      <trkpt lat="45.2893" lon="1.09148">
        <ele>-0.65669105963718</ele>
        <time>2011-10-30 09:13:18</time>
      </trkpt>
      <trkpt lat="45.28889" lon="1.09144">
        <ele>-0.92777774325623</ele>
        <time>2011-10-30 09:13:25</time>
      </trkpt>
      <trkpt lat="45.28857" lon="1.09115">
        <ele>-0.69735235937105</ele>
        <time>2011-10-30 09:13:32</time>
      </trkpt>
      <trkpt lat="45.2882" lon="1.0909">
        <ele>-0.45698461654888</ele>
        <time>2011-10-30 09:13:39</time>
      </trkpt>
      <trkpt lat="45.28785" lon="1.0907">
        <ele>-0.15863434147332</ele>
        <time>2011-10-30 09:13:44</time>
      </trkpt>
      <trkpt lat="45.28746" lon="1.09039">
        <ele>-0.6968133646883</ele>
        <time>2011-10-30 09:13:49</time>
      </trkpt>
      <trkpt lat="45.2871" lon="1.09005">
        <ele>-0.54591856548677</ele>
        <time>2011-10-30 09:13:54</time>
      </trkpt>
      <trkpt lat="45.28682" lon="1.08968">
        <ele>-1.0918410963895</ele>
        <time>2011-10-30 09:14:00</time>
      </trkpt>
      <trkpt lat="45.28655" lon="1.08928">
        <ele>-0.95563039557601</ele>
        <time>2011-10-30 09:14:11</time>
      </trkpt>
      <trkpt lat="45.28615" lon="1.08913">
        <ele>-0.61876389335862</ele>
        <time>2011-10-30 09:14:19</time>
      </trkpt>
      <trkpt lat="45.28588" lon="1.08869">
        <ele>-1.2323418222476</ele>
        <time>2011-10-30 09:14:26</time>
      </trkpt>
      <trkpt lat="45.28566" lon="1.08818">
        <ele>-0.47414321840881</ele>
        <time>2011-10-30 09:14:32</time>
      </trkpt>
      <trkpt lat="45.28548" lon="1.08771">
        <ele>-0.3523773916254</ele>
        <time>2011-10-30 09:14:37</time>
      </trkpt>
      <trkpt lat="45.28516" lon="1.08738">
        <ele>-0.17973762670624</ele>
        <time>2011-10-30 09:14:43</time>
      </trkpt>
      <trkpt lat="45.28518" lon="1.08687">
        <ele>-0.70314230039776</ele>
        <time>2011-10-30 09:14:49</time>
      </trkpt>
      <trkpt lat="45.28544" lon="1.08645">
        <ele>-1.0003721414808</ele>
        <time>2011-10-30 09:14:54</time>
      </trkpt>
      <trkpt lat="45.28581" lon="1.08624">
        <ele>-1.025089614794</ele>
        <time>2011-10-30 09:15:00</time>
      </trkpt>
      <trkpt lat="45.28599" lon="1.08578">
        <ele>-0.70070570659232</ele>
        <time>2011-10-30 09:15:07</time>
      </trkpt>
      <trkpt lat="45.28626" lon="1.08541">
        <ele>-0.23391447787344</ele>
        <time>2011-10-30 09:15:12</time>
      </trkpt>
      <trkpt lat="45.28655" lon="1.08506">
        <ele>-0.44547445517389</ele>
        <time>2011-10-30 09:15:16</time>
      </trkpt>
      <trkpt lat="45.28683" lon="1.08462">
        <ele>-0.76011159959512</ele>
        <time>2011-10-30 09:15:20</time>
      </trkpt>
      <trkpt lat="45.28709" lon="1.08415">
        <ele>-1.1066204850079</ele>
        <time>2011-10-30 09:15:25</time>
      </trkpt>
      <trkpt lat="45.28748" lon="1.0841">
        <ele>-0.23016326250956</ele>
        <time>2011-10-30 09:15:33</time>
      </trkpt>
      <trkpt lat="45.28788" lon="1.08419">
        <ele>-0.63460646130397</ele>
        <time>2011-10-30 09:15:43</time>
      </trkpt>
      <trkpt lat="45.2882" lon="1.08394">
        <ele>-0.71391927845889</ele>
        <time>2011-10-30 09:15:56</time>
      </trkpt>
      <trkpt lat="45.28858" lon="1.08388">
        <ele>-0.57127400030686</ele>
        <time>2011-10-30 09:16:09</time>
      </trkpt>
      <trkpt lat="45.28897" lon="1.08406">
        <ele>-0.87506067156562</ele>
        <time>2011-10-30 09:16:19</time>
      </trkpt>
      <trkpt lat="45.28934" lon="1.08406">
        <ele>-0.66714115578031</ele>
        <time>2011-10-30 09:16:28</time>
      </trkpt>
      <trkpt lat="45.2897" lon="1.08415">
        <ele>-1.0903430328201</ele>
        <time>2011-10-30 09:16:38</time>
      </trkpt>
      <trkpt lat="45.29007" lon="1.08422">
        <ele>-0.8137261954472</ele>
        <time>2011-10-30 09:16:47</time>
      </trkpt>
      <trkpt lat="45.29043" lon="1.08438">
        <ele>-1.1506767384084</ele>
        <time>2011-10-30 09:16:56</time>
      </trkpt>
      <trkpt lat="45.29081" lon="1.08447">
        <ele>-0.12760092026212</ele>
        <time>2011-10-30 09:17:06</time>
      </trkpt>
      <trkpt lat="45.29117" lon="1.08432">
        <ele>-0.80844914154466</ele>
        <time>2011-10-30 09:17:17</time>
      </trkpt>
      <trkpt lat="45.29152" lon="1.08444">
        <ele>-0.48366708544643</ele>
        <time>2011-10-30 09:17:36</time>
      </trkpt>
      <trkpt lat="45.2917" lon="1.08489">
        <ele>-0.62173229029008</ele>
        <time>2011-10-30 09:17:58</time>
      </trkpt>
      <trkpt lat="45.29182" lon="1.08539">
        <ele>-0.73636671225961</ele>
        <time>2011-10-30 09:18:08</time>
      </trkpt>
      <trkpt lat="45.29217" lon="1.08532">
        <ele>-0.60594735969494</ele>
        <time>2011-10-30 09:18:40</time>
      </trkpt>
      <trkpt lat="45.29246" lon="1.08495">
        <ele>-0.83179450067144</ele>
        <time>2011-10-30 09:19:05</time>
      </trkpt>
      <trkpt lat="45.29279" lon="1.08468">
        <ele>-0.93992694300243</ele>
        <time>2011-10-30 09:19:27</time>
      </trkpt>
      <trkpt lat="45.29311" lon="1.08442">
        <ele>-1.0338108920711</ele>
        <time>2011-10-30 09:19:45</time>
      </trkpt>
      <trkpt lat="45.29347" lon="1.08418">
        <ele>-1.081667069856</ele>
        <time>2011-10-30 09:20:02</time>
      </trkpt>
      <trkpt lat="45.29379" lon="1.08388">
        <ele>-1.2179116520492</ele>
        <time>2011-10-30 09:20:17</time>
      </trkpt>
      <trkpt lat="45.29409" lon="1.08358">
        <ele>-1.3610693745328</ele>
        <time>2011-10-30 09:20:33</time>
      </trkpt>
      <trkpt lat="45.2944" lon="1.08329">
        <ele>-0.78529891291043</ele>
        <time>2011-10-30 09:20:49</time>
      </trkpt>
      <trkpt lat="45.29472" lon="1.08301">
        <ele>-0.90327589597166</ele>
        <time>2011-10-30 09:21:16</time>
      </trkpt>
      <trkpt lat="45.29501" lon="1.08269">
        <ele>-0.35952996738024</ele>
        <time>2011-10-30 09:21:35</time>
      </trkpt>
      <trkpt lat="45.29531" lon="1.08238">
        <ele>-1.2230743613227</ele>
        <time>2011-10-30 09:21:59</time>
      </trkpt>
      <trkpt lat="45.2957" lon="1.08212">
        <ele>-0.5700329104161</ele>
        <time>2011-10-30 09:22:05</time>
      </trkpt>
      <trkpt lat="45.29605" lon="1.08188">
        <ele>-0.61942381305209</ele>
        <time>2011-10-30 09:22:09</time>
      </trkpt>
      <trkpt lat="45.29643" lon="1.08176">
        <ele>-0.52922657903071</ele>
        <time>2011-10-30 09:22:19</time>
      </trkpt>
      <trkpt lat="45.29683" lon="1.08175">
        <ele>-0.32420807977917</ele>
        <time>2011-10-30 09:22:29</time>
      </trkpt>
      <trkpt lat="45.29712" lon="1.08207">
        <ele>-0.52528015782241</ele>
        <time>2011-10-30 09:22:43</time>
      </trkpt>
      <trkpt lat="45.29695" lon="1.08259">
        <ele>-0.79605287770641</ele>
        <time>2011-10-30 09:22:50</time>
      </trkpt>
      <trkpt lat="45.29679" lon="1.0831">
        <ele>-0.35356840196596</ele>
        <time>2011-10-30 09:22:55</time>
      </trkpt>
      <trkpt lat="45.29663" lon="1.08363">
        <ele>-0.59296285740743</ele>
        <time>2011-10-30 09:22:59</time>
      </trkpt>
      <trkpt lat="45.29651" lon="1.08417">
        <ele>-0.79026084299812</ele>
        <time>2011-10-30 09:23:03</time>
      </trkpt>
      <trkpt lat="45.29642" lon="1.0847">
        <ele>-0.29189815677307</ele>
        <time>2011-10-30 09:23:07</time>
      </trkpt>
      <trkpt lat="45.29637" lon="1.08523">
        <ele>-0.46863195290348</ele>
        <time>2011-10-30 09:23:12</time>
      </trkpt>
      <trkpt lat="45.29663" lon="1.08569">
        <ele>-1.2495637913813</ele>
        <time>2011-10-30 09:23:18</time>
      </trkpt>
      <trkpt lat="45.29659" lon="1.08623">
        <ele>-0.70886632579095</ele>
        <time>2011-10-30 09:23:25</time>
      </trkpt>
      <trkpt lat="45.29687" lon="1.08655">
        <ele>-0.91291325820941</ele>
        <time>2011-10-30 09:23:39</time>
      </trkpt>
      <trkpt lat="45.29705" lon="1.087">
        <ele>-1.0485696747961</ele>
        <time>2011-10-30 09:24:09</time>
      </trkpt>
      <trkpt lat="45.29705" lon="1.08751">
        <ele>-1.2158580556148</ele>
        <time>2011-10-30 09:24:36</time>
      </trkpt>
      <trkpt lat="45.29696" lon="1.08801">
        <ele>-0.75176188901185</ele>
        <time>2011-10-30 09:24:58</time>
      </trkpt>
      <trkpt lat="45.29676" lon="1.08844">
        <ele>-0.40457915958007</ele>
        <time>2011-10-30 09:25:32</time>
      </trkpt>
      <trkpt lat="45.29651" lon="1.0888">
        <ele>-0.86705463784472</ele>
        <time>2011-10-30 09:28:49</time>
      </trkpt>
      <trkpt lat="45.29653" lon="1.08931">
        <ele>-1.0301874402089</ele>
        <time>2011-10-30 09:29:02</time>
      </trkpt>
      <trkpt lat="45.29687" lon="1.08959">
        <ele>-0.55272604514403</ele>
        <time>2011-10-30 09:29:13</time>
      </trkpt>
      <trkpt lat="45.29719" lon="1.08993">
        <ele>-0.71766279365488</ele>
        <time>2011-10-30 09:29:20</time>
      </trkpt>
      <trkpt lat="45.29749" lon="1.09029">
        <ele>-0.87405237878249</ele>
        <time>2011-10-30 09:29:28</time>
      </trkpt>
      <trkpt lat="45.29779" lon="1.09059">
        <ele>-0.39121076552897</ele>
        <time>2011-10-30 09:29:37</time>
      </trkpt>
      <trkpt lat="45.29817" lon="1.09051">
        <ele>-0.25732765674127</ele>
        <time>2011-10-30 09:29:48</time>
      </trkpt>
      <trkpt lat="45.29851" lon="1.09026">
        <ele>-1.0311558848201</ele>
        <time>2011-10-30 09:29:58</time>
      </trkpt>
      <trkpt lat="45.29883" lon="1.08997">
        <ele>-1.1574848696612</ele>
        <time>2011-10-30 09:30:06</time>
      </trkpt>
      <trkpt lat="45.29913" lon="1.08966">
        <ele>-0.60897780516575</ele>
        <time>2011-10-30 09:30:13</time>
      </trkpt>
      <trkpt lat="45.2994" lon="1.08922">
        <ele>-0.20807190311484</ele>
        <time>2011-10-30 09:30:22</time>
      </trkpt>
      <trkpt lat="45.29962" lon="1.08879">
        <ele>-0.53723057052548</ele>
        <time>2011-10-30 09:30:28</time>
      </trkpt>
      <trkpt lat="45.30003" lon="1.0885">
        <ele>-0.60721610056328</ele>
        <time>2011-10-30 09:30:32</time>
      </trkpt>
      <trkpt lat="45.3004" lon="1.08833">
        <ele>-0.56900108985985</ele>
        <time>2011-10-30 09:30:36</time>
      </trkpt>
      <trkpt lat="45.30073" lon="1.08797">
        <ele>-0.76619164542274</ele>
        <time>2011-10-30 09:30:41</time>
      </trkpt>
      <trkpt lat="45.30105" lon="1.08764">
        <ele>-0.92391939876029</ele>
        <time>2011-10-30 09:30:45</time>
      </trkpt>
      <trkpt lat="45.30124" lon="1.08719">
        <ele>-1.2983926630512</ele>
        <time>2011-10-30 09:30:49</time>
      </trkpt>
      <trkpt lat="45.3014" lon="1.0867">
        <ele>-0.99814300199353</ele>
        <time>2011-10-30 09:30:55</time>
      </trkpt>
      <trkpt lat="45.30159" lon="1.0862">
        <ele>-0.71551607925801</ele>
        <time>2011-10-30 09:31:04</time>
      </trkpt>
      <trkpt lat="45.30191" lon="1.08594">
        <ele>-0.81394740459984</ele>
        <time>2011-10-30 09:31:20</time>
      </trkpt>
      <trkpt lat="45.30228" lon="1.08593">
        <ele>-0.60459265495911</ele>
        <time>2011-10-30 09:31:33</time>
      </trkpt>
      <trkpt lat="45.30265" lon="1.08585">
        <ele>-0.48075076257987</ele>
        <time>2011-10-30 09:31:46</time>
      </trkpt>
      <trkpt lat="45.30301" lon="1.08571">
        <ele>-0.41109970473155</ele>
        <time>2011-10-30 09:31:58</time>
      </trkpt>
      <trkpt lat="45.30335" lon="1.08554">
        <ele>-0.38788185147303</ele>
        <time>2011-10-30 09:32:12</time>
      </trkpt>
      <trkpt lat="45.30366" lon="1.08527">
        <ele>-0.50649019003833</ele>
        <time>2011-10-30 09:32:26</time>
      </trkpt>
      <trkpt lat="45.30374" lon="1.08475">
        <ele>-0.30389187138599</ele>
        <time>2011-10-30 09:32:41</time>
      </trkpt>
      <trkpt lat="45.30378" lon="1.08424">
        <ele>-0.80843416569121</ele>
        <time>2011-10-30 09:33:00</time>
      </trkpt>
      <trkpt lat="45.30384" lon="1.08373">
        <ele>-0.601577495431</ele>
        <time>2011-10-30 09:33:23</time>
      </trkpt>
      <trkpt lat="45.3039" lon="1.08321">
        <ele>-1.1097537000866</ele>
        <time>2011-10-30 09:33:51</time>
      </trkpt>
      <trkpt lat="45.30372" lon="1.08274">
        <ele>-0.99305442602554</ele>
        <time>2011-10-30 09:34:17</time>
      </trkpt>
      <trkpt lat="45.30347" lon="1.08232">
        <ele>-0.87198722535663</ele>
        <time>2011-10-30 09:34:33</time>
      </trkpt>
      <trkpt lat="45.30341" lon="1.08181">
        <ele>-0.74184260815036</ele>
        <time>2011-10-30 09:34:49</time>
      </trkpt>
      <trkpt lat="45.30343" lon="1.08128">
        <ele>-0.57306982483192</ele>
        <time>2011-10-30 09:35:13</time>
      </trkpt>
      <trkpt lat="45.30345" lon="1.08077">
        <ele>-0.37684735489313</ele>
        <time>2011-10-30 09:35:38</time>
      </trkpt>
      <trkpt lat="45.30354" lon="1.08025">
        <ele>-0.87657187346349</ele>
        <time>2011-10-30 09:36:05</time>
      </trkpt>
      <trkpt lat="45.30359" lon="1.07974">
        <ele>-0.67242163976971</ele>
        <time>2011-10-30 09:36:31</time>
      </trkpt>
      <trkpt lat="45.30365" lon="1.07924">
        <ele>-0.4643035538686</ele>
        <time>2011-10-30 09:36:57</time>
      </trkpt>
      <trkpt lat="45.3037" lon="1.07871">
        <ele>-0.27735105494685</ele>
        <time>2011-10-30 09:37:14</time>
      </trkpt>
      <trkpt lat="45.30384" lon="1.07822">
        <ele>-0.70278342215226</ele>
        <time>2011-10-30 09:37:30</time>
      </trkpt>
      <trkpt lat="45.30412" lon="1.07789">
        <ele>-0.87806281470807</ele>
        <time>2011-10-30 09:37:46</time>
      </trkpt>
      <trkpt lat="45.30429" lon="1.07741">
        <ele>-0.58416847833382</ele>
        <time>2011-10-30 09:38:02</time>
      </trkpt>
      <trkpt lat="45.30413" lon="1.07695">
        <ele>-0.44866980913844</ele>
        <time>2011-10-30 09:38:20</time>
      </trkpt>
      <trkpt lat="45.30395" lon="1.07651">
        <ele>-1.0126604782274</ele>
        <time>2011-10-30 09:38:36</time>
      </trkpt>
      <trkpt lat="45.30375" lon="1.07606">
        <ele>-0.8805749873693</ele>
        <time>2011-10-30 09:38:50</time>
      </trkpt>
      <trkpt lat="45.30356" lon="1.07562">
        <ele>-0.74060215701991</ele>
        <time>2011-10-30 09:39:04</time>
      </trkpt>
      <trkpt lat="45.30342" lon="1.07515">
        <ele>-0.61808608708782</ele>
        <time>2011-10-30 09:39:17</time>
      </trkpt>
      <trkpt lat="45.30332" lon="1.07456">
        <ele>-0.5825904665428</ele>
        <time>2011-10-30 09:39:25</time>
      </trkpt>
      <trkpt lat="45.30323" lon="1.07401">
        <ele>-1.1942829509299</ele>
        <time>2011-10-30 09:39:34</time>
      </trkpt>
      <trkpt lat="45.30314" lon="1.07347">
        <ele>-1.1042593488709</ele>
        <time>2011-10-30 09:39:39</time>
      </trkpt>
      <trkpt lat="45.30307" lon="1.07296">
        <ele>-0.25814062754137</ele>
        <time>2011-10-30 09:39:43</time>
      </trkpt>
      <trkpt lat="45.30293" lon="1.07245">
        <ele>-0.87122628774523</ele>
        <time>2011-10-30 09:39:48</time>
      </trkpt>
      <trkpt lat="45.30282" lon="1.07193">
        <ele>-0.77081614920098</ele>
        <time>2011-10-30 09:39:55</time>
      </trkpt>
      <trkpt lat="45.30298" lon="1.07146">
        <ele>-0.45827030154487</ele>
        <time>2011-10-30 09:40:09</time>
      </trkpt>
      <trkpt lat="45.30315" lon="1.071">
        <ele>-0.83171821953567</ele>
        <time>2011-10-30 09:40:26</time>
      </trkpt>
      <trkpt lat="45.30314" lon="1.07044">
        <ele>-0.71374709229428</ele>
        <time>2011-10-30 09:40:33</time>
      </trkpt>
      <trkpt lat="45.30324" lon="1.06984">
        <ele>-0.57457578850176</ele>
        <time>2011-10-30 09:40:39</time>
      </trkpt>
      <trkpt lat="45.30337" lon="1.0693">
        <ele>-1.0614478775792</ele>
        <time>2011-10-30 09:40:45</time>
      </trkpt>
      <trkpt lat="45.3035" lon="1.06878">
        <ele>-0.81941843329764</ele>
        <time>2011-10-30 09:40:51</time>
      </trkpt>
      <trkpt lat="45.30372" lon="1.06836">
        <ele>-1.1244621801353</ele>
        <time>2011-10-30 09:40:58</time>
      </trkpt>
      <trkpt lat="45.30411" lon="1.0684">
        <ele>-0.84617884862189</ele>
        <time>2011-10-30 09:41:05</time>
      </trkpt>
      <trkpt lat="45.30451" lon="1.06844">
        <ele>-0.58502223842538</ele>
        <time>2011-10-30 09:41:10</time>
      </trkpt>
      <trkpt lat="45.30493" lon="1.06851">
        <ele>-0.96717680027768</ele>
        <time>2011-10-30 09:41:15</time>
      </trkpt>
      <trkpt lat="45.30531" lon="1.06866">
        <ele>-0.59149099435638</ele>
        <time>2011-10-30 09:41:21</time>
      </trkpt>
      <trkpt lat="45.30571" lon="1.0685">
        <ele>-0.5224264001547</ele>
        <time>2011-10-30 09:41:26</time>
      </trkpt>
      <trkpt lat="45.30606" lon="1.0684">
        <ele>-0.41663160119163</ele>
        <time>2011-10-30 09:41:30</time>
      </trkpt>
      <trkpt lat="45.3064" lon="1.06819">
        <ele>-1.1396510673597</ele>
        <time>2011-10-30 09:41:34</time>
      </trkpt>
      <trkpt lat="45.30681" lon="1.06798">
        <ele>-0.41240495593331</ele>
        <time>2011-10-30 09:41:38</time>
      </trkpt>
      <trkpt lat="45.3072" lon="1.06785">
        <ele>-1.0342884732862</ele>
        <time>2011-10-30 09:41:44</time>
      </trkpt>
      <trkpt lat="45.30759" lon="1.06805">
        <ele>-0.59316984823192</ele>
        <time>2011-10-30 09:41:50</time>
      </trkpt>
      <trkpt lat="45.30796" lon="1.06812">
        <ele>-1.0080337705372</ele>
        <time>2011-10-30 09:41:56</time>
      </trkpt>
      <trkpt lat="45.30835" lon="1.06797">
        <ele>-0.9331715218425</ele>
        <time>2011-10-30 09:42:07</time>
      </trkpt>
      <trkpt lat="45.30873" lon="1.06784">
        <ele>-0.85036736521204</ele>
        <time>2011-10-30 09:42:15</time>
      </trkpt>
      <trkpt lat="45.3091" lon="1.06785">
        <ele>-0.62845804526046</ele>
        <time>2011-10-30 09:42:21</time>
      </trkpt>
      <trkpt lat="45.30952" lon="1.06774">
        <ele>-0.48859789664891</ele>
        <time>2011-10-30 09:42:26</time>
      </trkpt>
      <trkpt lat="45.30988" lon="1.06766">
        <ele>-0.36271678895616</ele>
        <time>2011-10-30 09:42:31</time>
      </trkpt>
      <trkpt lat="45.31024" lon="1.06781">
        <ele>-0.70470833427862</ele>
        <time>2011-10-30 09:42:37</time>
      </trkpt>
      <trkpt lat="45.31061" lon="1.06789">
        <ele>-0.39674534940821</ele>
        <time>2011-10-30 09:42:42</time>
      </trkpt>
      <trkpt lat="45.31101" lon="1.06797">
        <ele>-0.066755355699115</ele>
        <time>2011-10-30 09:42:48</time>
      </trkpt>
      <trkpt lat="45.31141" lon="1.06802">
        <ele>-0.49619380395825</ele>
        <time>2011-10-30 09:42:53</time>
      </trkpt>
      <trkpt lat="45.31181" lon="1.06792">
        <ele>-0.35484757782945</ele>
        <time>2011-10-30 09:42:57</time>
      </trkpt>
      <trkpt lat="45.31225" lon="1.06802">
        <ele>-0.70190440306158</ele>
        <time>2011-10-30 09:43:03</time>
      </trkpt>
      <trkpt lat="45.31261" lon="1.06812">
        <ele>-1.092349278184</ele>
        <time>2011-10-30 09:43:08</time>
      </trkpt>
      <trkpt lat="45.31303" lon="1.06811">
        <ele>-0.84937179865494</ele>
        <time>2011-10-30 09:43:14</time>
      </trkpt>
      <trkpt lat="45.31294" lon="1.06861">
        <ele>-0.39362050501973</ele>
        <time>2011-10-30 09:44:17</time>
      </trkpt>
      <trkpt lat="45.31261" lon="1.06883">
        <ele>-1.0643440472727</ele>
        <time>2011-10-30 09:44:45</time>
      </trkpt>
      <trkpt lat="45.31231" lon="1.06913">
        <ele>-0.92449244757586</ele>
        <time>2011-10-30 09:45:12</time>
      </trkpt>
      <trkpt lat="45.31199" lon="1.06938">
        <ele>-0.86218846713552</ele>
        <time>2011-10-30 09:45:42</time>
      </trkpt>
      <trkpt lat="45.31175" lon="1.06977">
        <ele>-0.60334249853486</ele>
        <time>2011-10-30 09:46:15</time>
      </trkpt>
      <trkpt lat="45.31145" lon="1.07007">
        <ele>-1.1800902680451</ele>
        <time>2011-10-30 09:46:51</time>
      </trkpt>
      <trkpt lat="45.31117" lon="1.0704">
        <ele>-0.2930083288071</ele>
        <time>2011-10-30 09:47:22</time>
      </trkpt>
      <trkpt lat="45.31085" lon="1.07069">
        <ele>-0.89075006790176</ele>
        <time>2011-10-30 09:47:49</time>
      </trkpt>
      <trkpt lat="45.31052" lon="1.07091">
        <ele>-0.85642534304566</ele>
        <time>2011-10-30 09:48:12</time>
      </trkpt>
      <trkpt lat="45.31018" lon="1.07107">
        <ele>-0.8935072601729</ele>
        <time>2011-10-30 09:48:30</time>
      </trkpt>
      <trkpt lat="45.30982" lon="1.07124">
        <ele>-0.92664101538298</ele>
        <time>2011-10-30 09:48:50</time>
      </trkpt>
      <trkpt lat="45.30949" lon="1.07144">
        <ele>-0.92647487196871</ele>
        <time>2011-10-30 09:49:09</time>
      </trkpt>
      <trkpt lat="45.3093" lon="1.07188">
        <ele>-1.2838746296237</ele>
        <time>2011-10-30 09:49:30</time>
      </trkpt>
      <trkpt lat="45.30911" lon="1.07232">
        <ele>-0.93363878605169</ele>
        <time>2011-10-30 09:49:48</time>
      </trkpt>
      <trkpt lat="45.30896" lon="1.07282">
        <ele>-0.50550239682218</ele>
        <time>2011-10-30 09:50:03</time>
      </trkpt>
      <trkpt lat="45.30877" lon="1.07326">
        <ele>-0.86236904373516</ele>
        <time>2011-10-30 09:50:15</time>
      </trkpt>
      <trkpt lat="45.30856" lon="1.07368">
        <ele>-0.55440165133564</ele>
        <time>2011-10-30 09:50:25</time>
      </trkpt>
      <trkpt lat="45.30835" lon="1.07412">
        <ele>-0.92854987163741</ele>
        <time>2011-10-30 09:50:38</time>
      </trkpt>
      <trkpt lat="45.30815" lon="1.07458">
        <ele>-0.57364906931321</ele>
        <time>2011-10-30 09:50:54</time>
      </trkpt>
      <trkpt lat="45.3079" lon="1.07495">
        <ele>-1.0367614868294</ele>
        <time>2011-10-30 09:51:10</time>
      </trkpt>
      <trkpt lat="45.30758" lon="1.07523">
        <ele>-0.93596293943517</ele>
        <time>2011-10-30 09:51:28</time>
      </trkpt>
      <trkpt lat="45.30725" lon="1.07552">
        <ele>-0.83112045214921</ele>
        <time>2011-10-30 09:51:39</time>
      </trkpt>
      <trkpt lat="45.30687" lon="1.07576">
        <ele>-0.79014325267121</ele>
        <time>2011-10-30 09:51:47</time>
      </trkpt>
      <trkpt lat="45.30657" lon="1.07604">
        <ele>-0.68469433413293</ele>
        <time>2011-10-30 09:51:55</time>
      </trkpt>
      <trkpt lat="45.30623" lon="1.07625">
        <ele>-0.66441758891642</ele>
        <time>2011-10-30 09:52:05</time>
      </trkpt>
      <trkpt lat="45.30595" lon="1.07659">
        <ele>-0.47311197544275</ele>
        <time>2011-10-30 09:52:19</time>
      </trkpt>
      <trkpt lat="45.30561" lon="1.0768">
        <ele>-1.1598169794206</ele>
        <time>2011-10-30 09:52:34</time>
      </trkpt>
      <trkpt lat="45.30586" lon="1.07721">
        <ele>-1.2889089251955</ele>
        <time>2011-10-30 10:14:44</time>
      </trkpt>
      <trkpt lat="45.30619" lon="1.07755">
        <ele>-0.035720587042419</ele>
        <time>2011-10-30 10:14:55</time>
      </trkpt>
      <trkpt lat="45.30655" lon="1.07787">
        <ele>-0.19320896667</ele>
        <time>2011-10-30 10:15:02</time>
      </trkpt>
      <trkpt lat="45.30688" lon="1.07826">
        <ele>-1.0172409307253</ele>
        <time>2011-10-30 10:15:08</time>
      </trkpt>
      <trkpt lat="45.30714" lon="1.07873">
        <ele>-0.37381846919015</ele>
        <time>2011-10-30 10:15:14</time>
      </trkpt>
      <trkpt lat="45.30736" lon="1.07914">
        <ele>-0.51933501931444</ele>
        <time>2011-10-30 10:15:20</time>
      </trkpt>
      <trkpt lat="45.30759" lon="1.07958">
        <ele>-0.63551054739946</ele>
        <time>2011-10-30 10:15:27</time>
      </trkpt>
      <trkpt lat="45.30782" lon="1.08">
        <ele>-0.75921266176033</ele>
        <time>2011-10-30 10:15:35</time>
      </trkpt>
      <trkpt lat="45.30804" lon="1.08044">
        <ele>-0.8886649581525</ele>
        <time>2011-10-30 10:15:43</time>
      </trkpt>
      <trkpt lat="45.30828" lon="1.0809">
        <ele>-0.96525203181568</ele>
        <time>2011-10-30 10:15:51</time>
      </trkpt>
      <trkpt lat="45.30852" lon="1.08132">
        <ele>-0.38861013962128</ele>
        <time>2011-10-30 10:15:59</time>
      </trkpt>
      <trkpt lat="45.30877" lon="1.08174">
        <ele>-0.50753398364645</ele>
        <time>2011-10-30 10:16:07</time>
      </trkpt>
      <trkpt lat="45.30898" lon="1.08222">
        <ele>-0.59336406842567</ele>
        <time>2011-10-30 10:16:15</time>
      </trkpt>
      <trkpt lat="45.30927" lon="1.08259">
        <ele>-0.74077628371845</ele>
        <time>2011-10-30 10:16:22</time>
      </trkpt>
      <trkpt lat="45.30957" lon="1.08294">
        <ele>-0.89554165696552</ele>
        <time>2011-10-30 10:16:30</time>
      </trkpt>
      <trkpt lat="45.3099" lon="1.08324">
        <ele>-1.0966650354642</ele>
        <time>2011-10-30 10:16:39</time>
      </trkpt>
      <trkpt lat="45.3102" lon="1.08359">
        <ele>-1.2606966648431</ele>
        <time>2011-10-30 10:16:49</time>
      </trkpt>
      <trkpt lat="45.31051" lon="1.08396">
        <ele>-0.69368159325734</ele>
        <time>2011-10-30 10:16:57</time>
      </trkpt>
      <trkpt lat="45.31078" lon="1.08429">
        <ele>-0.88673074555095</ele>
        <time>2011-10-30 10:17:04</time>
      </trkpt>
      <trkpt lat="45.31091" lon="1.08481">
        <ele>-0.9854736456133</ele>
        <time>2011-10-30 10:17:12</time>
      </trkpt>
      <trkpt lat="45.31091" lon="1.08533">
        <ele>-0.42831179375048</ele>
        <time>2011-10-30 10:17:17</time>
      </trkpt>
      <trkpt lat="45.31092" lon="1.08588">
        <ele>-0.56292170309575</ele>
        <time>2011-10-30 10:17:22</time>
      </trkpt>
      <trkpt lat="45.31075" lon="1.0864">
        <ele>-0.8137143514233</ele>
        <time>2011-10-30 10:17:27</time>
      </trkpt>
      <trkpt lat="45.31061" lon="1.08694">
        <ele>-0.32750436113986</ele>
        <time>2011-10-30 10:17:32</time>
      </trkpt>
      <trkpt lat="45.3104" lon="1.08744">
        <ele>-0.6347429618271</ele>
        <time>2011-10-30 10:17:37</time>
      </trkpt>
      <trkpt lat="45.31024" lon="1.08796">
        <ele>-0.89469707648129</ele>
        <time>2011-10-30 10:17:43</time>
      </trkpt>
      <trkpt lat="45.31017" lon="1.08849">
        <ele>-0.37224159567268</ele>
        <time>2011-10-30 10:17:49</time>
      </trkpt>
      <trkpt lat="45.30996" lon="1.08896">
        <ele>-0.70823019020975</ele>
        <time>2011-10-30 10:17:54</time>
      </trkpt>
      <trkpt lat="45.30965" lon="1.08931">
        <ele>-1.2299531527233</ele>
        <time>2011-10-30 10:17:58</time>
      </trkpt>
      <trkpt lat="45.30945" lon="1.08977">
        <ele>-0.875621000666</ele>
        <time>2011-10-30 10:18:02</time>
      </trkpt>
      <trkpt lat="45.30918" lon="1.09021">
        <ele>-0.56822171719227</ele>
        <time>2011-10-30 10:18:06</time>
      </trkpt>
      <trkpt lat="45.3088" lon="1.09044">
        <ele>-0.53439507331495</ele>
        <time>2011-10-30 10:18:11</time>
      </trkpt>
      <trkpt lat="45.30843" lon="1.09069">
        <ele>-0.49245636344608</ele>
        <time>2011-10-30 10:18:15</time>
      </trkpt>
      <trkpt lat="45.30807" lon="1.09094">
        <ele>-0.44628823455616</ele>
        <time>2011-10-30 10:18:19</time>
      </trkpt>
      <trkpt lat="45.30768" lon="1.0912">
        <ele>-1.1073140577567</ele>
        <time>2011-10-30 10:18:24</time>
      </trkpt>
      <trkpt lat="45.30736" lon="1.09145">
        <ele>-0.32574124232065</ele>
        <time>2011-10-30 10:18:28</time>
      </trkpt>
      <trkpt lat="45.30699" lon="1.09168">
        <ele>-0.99398964713248</ele>
        <time>2011-10-30 10:18:33</time>
      </trkpt>
      <trkpt lat="45.30663" lon="1.09193">
        <ele>-0.94669090642765</ele>
        <time>2011-10-30 10:18:38</time>
      </trkpt>
      <trkpt lat="45.30625" lon="1.09223">
        <ele>-0.8560275435367</ele>
        <time>2011-10-30 10:18:43</time>
      </trkpt>
      <trkpt lat="45.3059" lon="1.09244">
        <ele>-0.13394418334531</ele>
        <time>2011-10-30 10:18:48</time>
      </trkpt>
      <trkpt lat="45.30554" lon="1.09267">
        <ele>-0.79717275708617</ele>
        <time>2011-10-30 10:18:53</time>
      </trkpt>
      <trkpt lat="45.30519" lon="1.09291">
        <ele>-0.7565569886832</ele>
        <time>2011-10-30 10:18:58</time>
      </trkpt>
      <trkpt lat="45.30484" lon="1.09308">
        <ele>-0.77051470250024</ele>
        <time>2011-10-30 10:19:03</time>
      </trkpt>
      <trkpt lat="45.30447" lon="1.09311">
        <ele>-0.95622808892608</ele>
        <time>2011-10-30 10:19:09</time>
      </trkpt>
      <trkpt lat="45.3041" lon="1.09308">
        <ele>-1.2003816747269</ele>
        <time>2011-10-30 10:19:15</time>
      </trkpt>
      <trkpt lat="45.3037" lon="1.09303">
        <ele>-0.77569193933925</ele>
        <time>2011-10-30 10:19:22</time>
      </trkpt>
      <trkpt lat="45.30331" lon="1.09295">
        <ele>-0.38013352074984</ele>
        <time>2011-10-30 10:19:30</time>
      </trkpt>
      <trkpt lat="45.30295" lon="1.09294">
        <ele>-0.59802960346383</ele>
        <time>2011-10-30 10:19:38</time>
      </trkpt>
      <trkpt lat="45.30259" lon="1.0931">
        <ele>-0.64165888942989</ele>
        <time>2011-10-30 10:19:45</time>
      </trkpt>
      <trkpt lat="45.30224" lon="1.0933">
        <ele>-0.62842242901229</ele>
        <time>2011-10-30 10:19:51</time>
      </trkpt>
      <trkpt lat="45.30187" lon="1.09348">
        <ele>-0.64986983930567</ele>
        <time>2011-10-30 10:19:57</time>
      </trkpt>
      <trkpt lat="45.30149" lon="1.09368">
        <ele>-0.6669657695544</ele>
        <time>2011-10-30 10:20:03</time>
      </trkpt>
      <trkpt lat="45.30119" lon="1.09399">
        <ele>-0.49894359133657</ele>
        <time>2011-10-30 10:20:09</time>
      </trkpt>
      <trkpt lat="45.30109" lon="1.09449">
        <ele>-0.74121258524997</ele>
        <time>2011-10-30 10:20:15</time>
      </trkpt>
      <trkpt lat="45.30091" lon="1.09503">
        <ele>-0.27080857221438</ele>
        <time>2011-10-30 10:20:21</time>
      </trkpt>
      <trkpt lat="45.30069" lon="1.09557">
        <ele>-0.53269352683265</ele>
        <time>2011-10-30 10:20:26</time>
      </trkpt>
      <trkpt lat="45.30053" lon="1.09605">
        <ele>-0.83032058235835</ele>
        <time>2011-10-30 10:20:30</time>
      </trkpt>
      <trkpt lat="45.30034" lon="1.09653">
        <ele>-1.1352420813808</ele>
        <time>2011-10-30 10:20:34</time>
      </trkpt>
      <trkpt lat="45.30011" lon="1.09694">
        <ele>-0.82589336796787</ele>
        <time>2011-10-30 10:20:38</time>
      </trkpt>
      <trkpt lat="45.29987" lon="1.09737">
        <ele>-0.49870548093122</ele>
        <time>2011-10-30 10:20:42</time>
      </trkpt>
      <trkpt lat="45.29971" lon="1.09783">
        <ele>-0.81131647513632</ele>
        <time>2011-10-30 10:20:46</time>
      </trkpt>
      <trkpt lat="45.29943" lon="1.09819">
        <ele>-0.58681455396027</ele>
        <time>2011-10-30 10:20:50</time>
      </trkpt>
      <trkpt lat="45.29912" lon="1.09861">
        <ele>-1.0319269348016</ele>
        <time>2011-10-30 10:20:54</time>
      </trkpt>
      <trkpt lat="45.2989" lon="1.09905">
        <ele>-0.68253869612511</ele>
        <time>2011-10-30 10:20:58</time>
      </trkpt>
      <trkpt lat="45.29863" lon="1.09954">
        <ele>-1.0236153509786</ele>
        <time>2011-10-30 10:21:03</time>
      </trkpt>
      <trkpt lat="45.29844" lon="1.1">
        <ele>-0.64505313688278</ele>
        <time>2011-10-30 10:21:08</time>
      </trkpt>
      <trkpt lat="45.29869" lon="1.10037">
        <ele>-0.8153555364446</ele>
        <time>2011-10-30 10:21:14</time>
      </trkpt>
      <trkpt lat="45.29896" lon="1.10076">
        <ele>-0.24323046373945</ele>
        <time>2011-10-30 10:21:20</time>
      </trkpt>
      <trkpt lat="45.29902" lon="1.10135">
        <ele>-0.29553000238809</ele>
        <time>2011-10-30 10:21:26</time>
      </trkpt>
      <trkpt lat="45.29907" lon="1.10197">
        <ele>-1.0080768350445</ele>
        <time>2011-10-30 10:21:31</time>
      </trkpt>
      <trkpt lat="45.29905" lon="1.10257">
        <ele>-0.37669709137162</ele>
        <time>2011-10-30 10:21:36</time>
      </trkpt>
      <trkpt lat="45.29883" lon="1.10299">
        <ele>-0.76904190537903</ele>
        <time>2011-10-30 10:21:42</time>
      </trkpt>
      <trkpt lat="45.29913" lon="1.10333">
        <ele>-0.24002304287762</ele>
        <time>2011-10-30 10:22:08</time>
      </trkpt>
      <trkpt lat="45.2995" lon="1.10326">
        <ele>-0.10154834009973</ele>
        <time>2011-10-30 10:22:24</time>
      </trkpt>
      <trkpt lat="45.29976" lon="1.10367">
        <ele>-0.22367414911082</ele>
        <time>2011-10-30 10:22:30</time>
      </trkpt>
      <trkpt lat="45.30004" lon="1.10411">
        <ele>-0.30274301902398</ele>
        <time>2011-10-30 10:22:36</time>
      </trkpt>
      <trkpt lat="45.30038" lon="1.10438">
        <ele>-1.2219859218278</ele>
        <time>2011-10-30 10:22:43</time>
      </trkpt>
      <trkpt lat="45.3007" lon="1.10463">
        <ele>-0.78255089942343</ele>
        <time>2011-10-30 10:22:52</time>
      </trkpt>
      <trkpt lat="45.30104" lon="1.10487">
        <ele>-0.33351773345646</ele>
        <time>2011-10-30 10:23:03</time>
      </trkpt>
      <trkpt lat="45.30109" lon="1.10538">
        <ele>-0.46109405675838</ele>
        <time>2011-10-30 10:23:21</time>
      </trkpt>
      <trkpt lat="45.30099" lon="1.10587">
        <ele>-0.70016954972129</ele>
        <time>2011-10-30 10:23:38</time>
      </trkpt>
      <trkpt lat="45.30114" lon="1.10635">
        <ele>-0.8016234969449</ele>
        <time>2011-10-30 10:23:56</time>
      </trkpt>
      <trkpt lat="45.30141" lon="1.10672">
        <ele>-0.24836447362622</ele>
        <time>2011-10-30 10:24:13</time>
      </trkpt>
      <trkpt lat="45.30174" lon="1.10696">
        <ele>-0.51577558527674</ele>
        <time>2011-10-30 10:24:27</time>
      </trkpt>
      <trkpt lat="45.30211" lon="1.1069">
        <ele>-1.0750636861661</ele>
        <time>2011-10-30 10:24:40</time>
      </trkpt>
      <trkpt lat="45.30232" lon="1.10734">
        <ele>-0.486920630123</ele>
        <time>2011-10-30 10:24:52</time>
      </trkpt>
      <trkpt lat="45.3024" lon="1.10785">
        <ele>-1.2999264631472</ele>
        <time>2011-10-30 10:25:04</time>
      </trkpt>
      <trkpt lat="45.30258" lon="1.1083">
        <ele>-0.71487176969777</ele>
        <time>2011-10-30 10:25:14</time>
      </trkpt>
      <trkpt lat="45.30275" lon="1.10879">
        <ele>-0.79966566665746</ele>
        <time>2011-10-30 10:25:25</time>
      </trkpt>
      <trkpt lat="45.30312" lon="1.10885">
        <ele>-0.52074594131659</ele>
        <time>2011-10-30 10:25:37</time>
      </trkpt>
      <trkpt lat="45.30348" lon="1.1086">
        <ele>-0.58261580141561</ele>
        <time>2011-10-30 10:25:48</time>
      </trkpt>
      <trkpt lat="45.30386" lon="1.10884">
        <ele>-0.81740239204885</ele>
        <time>2011-10-30 10:25:55</time>
      </trkpt>
      <trkpt lat="45.30409" lon="1.10926">
        <ele>-0.93577904878168</ele>
        <time>2011-10-30 10:26:00</time>
      </trkpt>
      <trkpt lat="45.30418" lon="1.10985">
        <ele>-0.24628241977473</ele>
        <time>2011-10-30 10:26:05</time>
      </trkpt>
      <trkpt lat="45.30438" lon="1.11039">
        <ele>-0.96870612434463</ele>
        <time>2011-10-30 10:26:09</time>
      </trkpt>
      <trkpt lat="45.30434" lon="1.11091">
        <ele>-0.42922840274093</ele>
        <time>2011-10-30 10:26:14</time>
      </trkpt>
      <trkpt lat="45.30439" lon="1.11151">
        <ele>-0.45990194609658</ele>
        <time>2011-10-30 10:26:19</time>
      </trkpt>
      <trkpt lat="45.30457" lon="1.11204">
        <ele>-0.49973703992339</ele>
        <time>2011-10-30 10:26:23</time>
      </trkpt>
      <trkpt lat="45.30479" lon="1.11253">
        <ele>-0.5517174476264</ele>
        <time>2011-10-30 10:26:29</time>
      </trkpt>
      <trkpt lat="45.30515" lon="1.11274">
        <ele>-0.10717725284837</ele>
        <time>2011-10-30 10:26:37</time>
      </trkpt>
      <trkpt lat="45.30553" lon="1.1128">
        <ele>-0.53977148153217</ele>
        <time>2011-10-30 10:26:48</time>
      </trkpt>
      <trkpt lat="45.30545" lon="1.11336">
        <ele>-0.6811639118622</ele>
        <time>2011-10-30 10:27:00</time>
      </trkpt>
      <trkpt lat="45.30548" lon="1.11387">
        <ele>-0.82335579042467</ele>
        <time>2011-10-30 10:27:11</time>
      </trkpt>
      <trkpt lat="45.30538" lon="1.11439">
        <ele>-1.0351760991617</ele>
        <time>2011-10-30 10:27:23</time>
      </trkpt>
      <trkpt lat="45.30521" lon="1.11488">
        <ele>-0.59807384610986</ele>
        <time>2011-10-30 10:27:31</time>
      </trkpt>
      <trkpt lat="45.30499" lon="1.11539">
        <ele>-0.88156152121655</ele>
        <time>2011-10-30 10:27:38</time>
      </trkpt>
      <trkpt lat="45.30516" lon="1.11588">
        <ele>-0.96742923496379</ele>
        <time>2011-10-30 10:27:48</time>
      </trkpt>
      <trkpt lat="45.30527" lon="1.1164">
        <ele>-0.33122223003761</ele>
        <time>2011-10-30 10:27:57</time>
      </trkpt>
      <trkpt lat="45.3052" lon="1.11696">
        <ele>-0.48121185802836</ele>
        <time>2011-10-30 10:28:05</time>
      </trkpt>
      <trkpt lat="45.3052" lon="1.11747">
        <ele>-0.63988391969815</ele>
        <time>2011-10-30 10:28:12</time>
      </trkpt>
      <trkpt lat="45.30529" lon="1.118">
        <ele>-0.72426895231138</ele>
        <time>2011-10-30 10:28:20</time>
      </trkpt>
      <trkpt lat="45.305" lon="1.11843">
        <ele>-0.42932490854298</ele>
        <time>2011-10-30 10:28:28</time>
      </trkpt>
      <trkpt lat="45.30471" lon="1.11884">
        <ele>-0.84956584617248</ele>
        <time>2011-10-30 10:28:35</time>
      </trkpt>
      <trkpt lat="45.3044" lon="1.11919">
        <ele>-0.64898675394329</ele>
        <time>2011-10-30 10:28:42</time>
      </trkpt>
      <trkpt lat="45.30407" lon="1.11945">
        <ele>-0.56082158140202</ele>
        <time>2011-10-30 10:28:49</time>
      </trkpt>
      <trkpt lat="45.3037" lon="1.11975">
        <ele>-1.1536424427194</ele>
        <time>2011-10-30 10:28:56</time>
      </trkpt>
      <trkpt lat="45.30335" lon="1.1199">
        <ele>-1.2034293915814</ele>
        <time>2011-10-30 10:29:02</time>
      </trkpt>
      <trkpt lat="45.30294" lon="1.12004">
        <ele>-1.2877302087556</ele>
        <time>2011-10-30 10:29:08</time>
      </trkpt>
      <trkpt lat="45.30259" lon="1.12019">
        <ele>-1.3233924702811</ele>
        <time>2011-10-30 10:29:13</time>
      </trkpt>
      <trkpt lat="45.30225" lon="1.12041">
        <ele>-0.57391609390049</ele>
        <time>2011-10-30 10:29:18</time>
      </trkpt>
      <trkpt lat="45.30188" lon="1.12062">
        <ele>-1.264375857013</ele>
        <time>2011-10-30 10:29:24</time>
      </trkpt>
      <trkpt lat="45.30151" lon="1.12084">
        <ele>-0.53168883368664</ele>
        <time>2011-10-30 10:29:30</time>
      </trkpt>
      <trkpt lat="45.30113" lon="1.12109">
        <ele>-0.48404328491506</ele>
        <time>2011-10-30 10:29:36</time>
      </trkpt>
      <trkpt lat="45.30074" lon="1.12134">
        <ele>-0.43608300685287</ele>
        <time>2011-10-30 10:29:41</time>
      </trkpt>
      <trkpt lat="45.3004" lon="1.12151">
        <ele>-0.44432896889964</ele>
        <time>2011-10-30 10:29:45</time>
      </trkpt>
      <trkpt lat="45.29998" lon="1.12167">
        <ele>-1.2157544316499</ele>
        <time>2011-10-30 10:29:50</time>
      </trkpt>
      <trkpt lat="45.29961" lon="1.1217">
        <ele>-0.6938452999093</ele>
        <time>2011-10-30 10:29:56</time>
      </trkpt>
      <trkpt lat="45.29934" lon="1.12206">
        <ele>-0.45090642837829</ele>
        <time>2011-10-30 10:30:01</time>
      </trkpt>
      <trkpt lat="45.29938" lon="1.1226">
        <ele>-0.55157586267353</ele>
        <time>2011-10-30 10:30:08</time>
      </trkpt>
      <trkpt lat="45.29901" lon="1.12267">
        <ele>-0.68920513144963</ele>
        <time>2011-10-30 10:30:15</time>
      </trkpt>
      <trkpt lat="45.29861" lon="1.1227">
        <ele>-0.8776475278687</ele>
        <time>2011-10-30 10:30:21</time>
      </trkpt>
      <trkpt lat="45.29843" lon="1.12315">
        <ele>-1.1870685781862</ele>
        <time>2011-10-30 10:30:33</time>
      </trkpt>
      <trkpt lat="45.29859" lon="1.12366">
        <ele>-1.2685803568364</ele>
        <time>2011-10-30 10:30:41</time>
      </trkpt>
      <trkpt lat="45.29874" lon="1.12413">
        <ele>-0.66231938157887</ele>
        <time>2011-10-30 10:30:48</time>
      </trkpt>
      <trkpt lat="45.29884" lon="1.12468">
        <ele>-0.71628161637261</ele>
        <time>2011-10-30 10:30:54</time>
      </trkpt>
      <trkpt lat="45.29903" lon="1.12513">
        <ele>-0.81835322319432</ele>
        <time>2011-10-30 10:31:02</time>
      </trkpt>
      <trkpt lat="45.29916" lon="1.12563">
        <ele>-0.90655096037403</ele>
        <time>2011-10-30 10:31:09</time>
      </trkpt>
      <trkpt lat="45.29926" lon="1.12617">
        <ele>-0.2741311553151</ele>
        <time>2011-10-30 10:31:16</time>
      </trkpt>
      <trkpt lat="45.29961" lon="1.12646">
        <ele>-1.168924236085</ele>
        <time>2011-10-30 10:31:24</time>
      </trkpt>
      <trkpt lat="45.29994" lon="1.1267">
        <ele>-0.71336213984648</ele>
        <time>2011-10-30 10:31:31</time>
      </trkpt>
      <trkpt lat="45.30031" lon="1.12693">
        <ele>-0.95637425996279</ele>
        <time>2011-10-30 10:31:38</time>
      </trkpt>
      <trkpt lat="45.30051" lon="1.12735">
        <ele>-0.38562986603415</ele>
        <time>2011-10-30 10:34:25</time>
      </trkpt>
      <trkpt lat="45.30041" lon="1.12789">
        <ele>-0.56491428336528</ele>
        <time>2011-10-30 10:34:36</time>
      </trkpt>
      <trkpt lat="45.30062" lon="1.12835">
        <ele>-0.65375853125545</ele>
        <time>2011-10-30 10:34:45</time>
      </trkpt>
      <trkpt lat="45.30085" lon="1.1288">
        <ele>-0.73319871073875</ele>
        <time>2011-10-30 10:34:56</time>
      </trkpt>
      <trkpt lat="45.301" lon="1.12929">
        <ele>-0.82048862836507</ele>
        <time>2011-10-30 10:35:04</time>
      </trkpt>
      <trkpt lat="45.30114" lon="1.12981">
        <ele>-0.86753095584322</ele>
        <time>2011-10-30 10:35:13</time>
      </trkpt>
      <trkpt lat="45.30134" lon="1.13032">
        <ele>-0.91551010200556</ele>
        <time>2011-10-30 10:35:22</time>
      </trkpt>
      <trkpt lat="45.30163" lon="1.13068">
        <ele>-1.0612907893728</ele>
        <time>2011-10-30 10:35:28</time>
      </trkpt>
      <trkpt lat="45.302" lon="1.13081">
        <ele>-0.69474834991115</ele>
        <time>2011-10-30 10:35:38</time>
      </trkpt>
      <trkpt lat="45.30235" lon="1.13097">
        <ele>-0.31553252642345</ele>
        <time>2011-10-30 10:35:56</time>
      </trkpt>
      <trkpt lat="45.30266" lon="1.13129">
        <ele>-1.216181800532</ele>
        <time>2011-10-30 10:36:18</time>
      </trkpt>
      <trkpt lat="45.30304" lon="1.13128">
        <ele>-1.002630713091</ele>
        <time>2011-10-30 10:36:45</time>
      </trkpt>
      <trkpt lat="45.3034" lon="1.13127">
        <ele>-0.089010724131072</ele>
        <time>2011-10-30 10:37:05</time>
      </trkpt>
      <trkpt lat="45.30378" lon="1.13118">
        <ele>-0.68793779808311</ele>
        <time>2011-10-30 10:37:24</time>
      </trkpt>
      <trkpt lat="45.30414" lon="1.1311">
        <ele>-1.2725387908579</ele>
        <time>2011-10-30 10:37:38</time>
      </trkpt>
      <trkpt lat="45.3045" lon="1.13107">
        <ele>-0.39390829617685</ele>
        <time>2011-10-30 10:37:51</time>
      </trkpt>
      <trkpt lat="45.30489" lon="1.13104">
        <ele>-0.20497517840386</ele>
        <time>2011-10-30 10:38:04</time>
      </trkpt>
      <trkpt lat="45.30525" lon="1.13123">
        <ele>-0.48348507439982</ele>
        <time>2011-10-30 10:38:17</time>
      </trkpt>
      <trkpt lat="45.30561" lon="1.13142">
        <ele>-0.77959738415495</ele>
        <time>2011-10-30 10:38:28</time>
      </trkpt>
      <trkpt lat="45.30594" lon="1.13161">
        <ele>-1.0831951830014</ele>
        <time>2011-10-30 10:38:38</time>
      </trkpt>
      <trkpt lat="45.30631" lon="1.13178">
        <ele>-0.67944478070717</ele>
        <time>2011-10-30 10:38:48</time>
      </trkpt>
      <trkpt lat="45.30667" lon="1.13193">
        <ele>-0.31507903032002</ele>
        <time>2011-10-30 10:38:58</time>
      </trkpt>
      <trkpt lat="45.30701" lon="1.13218">
        <ele>-0.54416664369512</ele>
        <time>2011-10-30 10:39:09</time>
      </trkpt>
      <trkpt lat="45.30733" lon="1.13242">
        <ele>-0.79058860371742</ele>
        <time>2011-10-30 10:39:21</time>
      </trkpt>
      <trkpt lat="45.30768" lon="1.13267">
        <ele>-0.31562467684501</ele>
        <time>2011-10-30 10:39:34</time>
      </trkpt>
      <trkpt lat="45.308" lon="1.13296">
        <ele>-0.51767752970227</ele>
        <time>2011-10-30 10:39:47</time>
      </trkpt>
      <trkpt lat="45.30833" lon="1.13317">
        <ele>-0.80333417969757</ele>
        <time>2011-10-30 10:40:00</time>
      </trkpt>
      <trkpt lat="45.30869" lon="1.13329">
        <ele>-0.45370179694407</ele>
        <time>2011-10-30 10:40:12</time>
      </trkpt>
      <trkpt lat="45.30905" lon="1.13341">
        <ele>-0.81710136128868</ele>
        <time>2011-10-30 10:40:26</time>
      </trkpt>
      <trkpt lat="45.30927" lon="1.13392">
        <ele>-0.84342621678786</ele>
        <time>2011-10-30 10:40:33</time>
      </trkpt>
      <trkpt lat="45.30947" lon="1.13438">
        <ele>-0.92718265407461</ele>
        <time>2011-10-30 10:40:37</time>
      </trkpt>
      <trkpt lat="45.30977" lon="1.13479">
        <ele>-1.0056531292919</ele>
        <time>2011-10-30 10:40:43</time>
      </trkpt>
      <trkpt lat="45.31" lon="1.13519">
        <ele>-1.1314432525497</ele>
        <time>2011-10-30 10:40:51</time>
      </trkpt>
      <trkpt lat="45.3098" lon="1.13565">
        <ele>-0.7517757780804</ele>
        <time>2011-10-30 10:40:56</time>
      </trkpt>
      <trkpt lat="45.30951" lon="1.13603">
        <ele>-0.51113904854481</ele>
        <time>2011-10-30 10:41:00</time>
      </trkpt>
      <trkpt lat="45.30932" lon="1.13653">
        <ele>-0.77269300484886</ele>
        <time>2011-10-30 10:41:05</time>
      </trkpt>
      <trkpt lat="45.30946" lon="1.13706">
        <ele>-0.81532600166315</ele>
        <time>2011-10-30 10:41:13</time>
      </trkpt>
      <trkpt lat="45.30974" lon="1.13741">
        <ele>-0.9672075481925</ele>
        <time>2011-10-30 10:41:21</time>
      </trkpt>
      <trkpt lat="45.31006" lon="1.13777">
        <ele>-0.38551021142314</ele>
        <time>2011-10-30 10:41:28</time>
      </trkpt>
      <trkpt lat="45.31039" lon="1.13798">
        <ele>-0.65948658492403</ele>
        <time>2011-10-30 10:41:34</time>
      </trkpt>
      <trkpt lat="45.31077" lon="1.13805">
        <ele>-0.36204057761415</ele>
        <time>2011-10-30 10:41:40</time>
      </trkpt>
      <trkpt lat="45.31119" lon="1.13814">
        <ele>-0.73207037658494</ele>
        <time>2011-10-30 10:41:47</time>
      </trkpt>
      <trkpt lat="45.31155" lon="1.13812">
        <ele>-0.53420711627564</ele>
        <time>2011-10-30 10:41:58</time>
      </trkpt>
      <trkpt lat="45.31193" lon="1.13796">
        <ele>-1.1878209466934</ele>
        <time>2011-10-30 10:42:07</time>
      </trkpt>
      <trkpt lat="45.31233" lon="1.13802">
        <ele>-0.88358487797529</ele>
        <time>2011-10-30 10:42:15</time>
      </trkpt>
      <trkpt lat="45.31268" lon="1.13817">
        <ele>-0.51459362060484</ele>
        <time>2011-10-30 10:42:23</time>
      </trkpt>
      <trkpt lat="45.31305" lon="1.1383">
        <ele>-0.85288430819662</ele>
        <time>2011-10-30 10:42:31</time>
      </trkpt>
      <trkpt lat="45.3134" lon="1.13851">
        <ele>-0.41735204961583</ele>
        <time>2011-10-30 10:42:40</time>
      </trkpt>
      <trkpt lat="45.31373" lon="1.13881">
        <ele>-0.59289573340459</ele>
        <time>2011-10-30 10:42:48</time>
      </trkpt>
      <trkpt lat="45.31401" lon="1.1392">
        <ele>-0.69807525063504</ele>
        <time>2011-10-30 10:42:56</time>
      </trkpt>
      <trkpt lat="45.3144" lon="1.13925">
        <ele>-1.127430098553</ele>
        <time>2011-10-30 10:43:06</time>
      </trkpt>
      <trkpt lat="45.3147" lon="1.13956">
        <ele>-0.59882580917122</ele>
        <time>2011-10-30 10:43:18</time>
      </trkpt>
      <trkpt lat="45.31497" lon="1.13994">
        <ele>-0.7351245747758</ele>
        <time>2011-10-30 10:43:31</time>
      </trkpt>
      <trkpt lat="45.31533" lon="1.14007">
        <ele>-0.37233157701166</ele>
        <time>2011-10-30 10:43:45</time>
      </trkpt>
      <trkpt lat="45.3157" lon="1.14013">
        <ele>-0.7868574522347</ele>
        <time>2011-10-30 10:43:58</time>
      </trkpt>
      <trkpt lat="45.31606" lon="1.14038">
        <ele>-1.0045813702371</ele>
        <time>2011-10-30 10:44:10</time>
      </trkpt>
      <trkpt lat="45.31642" lon="1.1405">
        <ele>-0.64917613919522</ele>
        <time>2011-10-30 10:44:29</time>
      </trkpt>
      <trkpt lat="45.31676" lon="1.14034">
        <ele>-0.62391138788257</ele>
        <time>2011-10-30 10:44:51</time>
      </trkpt>
      <trkpt lat="45.31713" lon="1.14036">
        <ele>-0.37806256370982</ele>
        <time>2011-10-30 10:45:15</time>
      </trkpt>
      <trkpt lat="45.3175" lon="1.14029">
        <ele>-0.93571771808433</ele>
        <time>2011-10-30 10:45:37</time>
      </trkpt>
      <trkpt lat="45.31786" lon="1.14024">
        <ele>-0.77741980669657</ele>
        <time>2011-10-30 10:45:57</time>
      </trkpt>
      <trkpt lat="45.31821" lon="1.14006">
        <ele>-0.75933107123183</ele>
        <time>2011-10-30 10:46:23</time>
      </trkpt>
      <trkpt lat="45.31849" lon="1.14039">
        <ele>-0.93193087678401</ele>
        <time>2011-10-30 10:46:56</time>
      </trkpt>
      <trkpt lat="45.3188" lon="1.14068">
        <ele>-0.43663212835827</ele>
        <time>2011-10-30 10:47:28</time>
      </trkpt>
      <trkpt lat="45.31912" lon="1.14043">
        <ele>-0.51445650923313</ele>
        <time>2011-10-30 10:47:54</time>
      </trkpt>
      <trkpt lat="45.31949" lon="1.14042">
        <ele>-0.29303609481121</ele>
        <time>2011-10-30 10:48:18</time>
      </trkpt>
      <trkpt lat="45.31974" lon="1.14078">
        <ele>-0.44881605656792</ele>
        <time>2011-10-30 10:48:38</time>
      </trkpt>
      <trkpt lat="45.31988" lon="1.14126">
        <ele>-0.53957785098851</ele>
        <time>2011-10-30 10:49:05</time>
      </trkpt>
      <trkpt lat="45.31993" lon="1.14075">
        <ele>-0.37087929227107</ele>
        <time>2011-10-30 10:49:26</time>
      </trkpt>
      <trkpt lat="45.3199" lon="1.1402">
        <ele>-0.99850358215667</ele>
        <time>2011-10-30 10:49:33</time>
      </trkpt>
      <trkpt lat="45.31988" lon="1.13965">
        <ele>-0.90864814100382</ele>
        <time>2011-10-30 10:49:43</time>
      </trkpt>
      <trkpt lat="45.31967" lon="1.13923">
        <ele>-0.79615987751015</ele>
        <time>2011-10-30 10:49:54</time>
      </trkpt>
      <trkpt lat="45.32004" lon="1.13926">
        <ele>-0.53032535179773</ele>
        <time>2011-10-30 10:50:17</time>
      </trkpt>
      <trkpt lat="45.31978" lon="1.13885">
        <ele>-0.43631555689854</ele>
        <time>2011-10-30 10:50:34</time>
      </trkpt>
      <trkpt lat="45.31972" lon="1.13832">
        <ele>-1.0554881322275</ele>
        <time>2011-10-30 10:50:46</time>
      </trkpt>
      <trkpt lat="45.31971" lon="1.1378">
        <ele>-0.93476104976344</ele>
        <time>2011-10-30 10:50:58</time>
      </trkpt>
      <trkpt lat="45.31977" lon="1.13726">
        <ele>-0.073832091260328</ele>
        <time>2011-10-30 10:51:10</time>
      </trkpt>
      <trkpt lat="45.31982" lon="1.1367">
        <ele>-0.64965086332359</ele>
        <time>2011-10-30 10:51:17</time>
      </trkpt>
      <trkpt lat="45.31973" lon="1.13611">
        <ele>-0.64330555826791</ele>
        <time>2011-10-30 10:51:23</time>
      </trkpt>
      <trkpt lat="45.31955" lon="1.13564">
        <ele>-1.2810900498407</ele>
        <time>2011-10-30 10:51:27</time>
      </trkpt>
      <trkpt lat="45.31951" lon="1.13503">
        <ele>-0.56620772411964</ele>
        <time>2011-10-30 10:51:32</time>
      </trkpt>
      <trkpt lat="45.3197" lon="1.13444">
        <ele>-1.0861021674684</ele>
        <time>2011-10-30 10:51:37</time>
      </trkpt>
      <trkpt lat="45.31984" lon="1.1339">
        <ele>-0.18319416639065</ele>
        <time>2011-10-30 10:51:42</time>
      </trkpt>
      <trkpt lat="45.3199" lon="1.13336">
        <ele>-0.74171204331378</ele>
        <time>2011-10-30 10:51:48</time>
      </trkpt>
      <trkpt lat="45.31996" lon="1.13285">
        <ele>-1.264303364671</ele>
        <time>2011-10-30 10:51:56</time>
      </trkpt>
      <trkpt lat="45.31999" lon="1.13234">
        <ele>-0.38433249260913</ele>
        <time>2011-10-30 10:52:03</time>
      </trkpt>
      <trkpt lat="45.32018" lon="1.13184">
        <ele>-0.82101428390933</ele>
        <time>2011-10-30 10:52:10</time>
      </trkpt>
      <trkpt lat="45.32043" lon="1.1314">
        <ele>-1.1609437018556</ele>
        <time>2011-10-30 10:52:17</time>
      </trkpt>
      <trkpt lat="45.32069" lon="1.13097">
        <ele>-0.76121876438856</ele>
        <time>2011-10-30 10:52:24</time>
      </trkpt>
      <trkpt lat="45.32095" lon="1.13054">
        <ele>-1.0688028464231</ele>
        <time>2011-10-30 10:52:31</time>
      </trkpt>
      <trkpt lat="45.32119" lon="1.13011">
        <ele>-0.6868859057206</ele>
        <time>2011-10-30 10:52:38</time>
      </trkpt>
      <trkpt lat="45.3214" lon="1.12967">
        <ele>-1.0386881528771</ele>
        <time>2011-10-30 10:52:45</time>
      </trkpt>
      <trkpt lat="45.32131" lon="1.1291">
        <ele>-1.0043541791246</ele>
        <time>2011-10-30 10:52:52</time>
      </trkpt>
      <trkpt lat="45.32097" lon="1.12892">
        <ele>-0.70071139214235</ele>
        <time>2011-10-30 10:52:58</time>
      </trkpt>
      <trkpt lat="45.32062" lon="1.1291">
        <ele>-0.71787628132881</ele>
        <time>2011-10-30 10:53:07</time>
      </trkpt>
      <trkpt lat="45.32023" lon="1.12908">
        <ele>-0.98008022571821</ele>
        <time>2011-10-30 10:53:18</time>
      </trkpt>
      <trkpt lat="45.32" lon="1.12868">
        <ele>-0.84773099974802</ele>
        <time>2011-10-30 10:53:29</time>
      </trkpt>
      <trkpt lat="45.31976" lon="1.1283">
        <ele>-0.71132985006921</ele>
        <time>2011-10-30 10:53:41</time>
      </trkpt>
      <trkpt lat="45.31942" lon="1.12807">
        <ele>-0.45036808458588</ele>
        <time>2011-10-30 10:53:55</time>
      </trkpt>
      <trkpt lat="45.31976" lon="1.12785">
        <ele>-0.49589897826866</ele>
        <time>2011-10-30 10:54:19</time>
      </trkpt>
      <trkpt lat="45.32009" lon="1.12763">
        <ele>-0.53142044822084</ele>
        <time>2011-10-30 10:54:35</time>
      </trkpt>
      <trkpt lat="45.32041" lon="1.12738">
        <ele>-0.60662005402025</ele>
        <time>2011-10-30 10:54:52</time>
      </trkpt>
      <trkpt lat="45.32073" lon="1.12714">
        <ele>-0.67351792339662</ele>
        <time>2011-10-30 10:55:09</time>
      </trkpt>
      <trkpt lat="45.32091" lon="1.1267">
        <ele>-1.0430363236039</ele>
        <time>2011-10-30 10:55:28</time>
      </trkpt>
      <trkpt lat="45.32089" lon="1.12619">
        <ele>-0.9053372044433</ele>
        <time>2011-10-30 10:55:43</time>
      </trkpt>
      <trkpt lat="45.32123" lon="1.126">
        <ele>-0.90171158074304</ele>
        <time>2011-10-30 10:55:58</time>
      </trkpt>
      <trkpt lat="45.32159" lon="1.1261">
        <ele>-0.57942570899945</ele>
        <time>2011-10-30 10:56:13</time>
      </trkpt>
      <trkpt lat="45.32195" lon="1.12615">
        <ele>-1.011965429186</ele>
        <time>2011-10-30 11:06:55</time>
      </trkpt>
      <trkpt lat="45.32221" lon="1.12574">
        <ele>-1.2918677490328</ele>
        <time>2011-10-30 11:07:07</time>
      </trkpt>
      <trkpt lat="45.32246" lon="1.12536">
        <ele>-0.84239065548888</ele>
        <time>2011-10-30 11:07:18</time>
      </trkpt>
      <trkpt lat="45.32279" lon="1.12509">
        <ele>-0.93739473049277</ele>
        <time>2011-10-30 11:07:28</time>
      </trkpt>
      <trkpt lat="45.32314" lon="1.12526">
        <ele>-1.2342346545249</ele>
        <time>2011-10-30 11:07:39</time>
      </trkpt>
      <trkpt lat="45.32352" lon="1.1254">
        <ele>-0.8583438400774</ele>
        <time>2011-10-30 11:07:52</time>
      </trkpt>
      <trkpt lat="45.32393" lon="1.12533">
        <ele>-0.68060341418743</ele>
        <time>2011-10-30 11:08:01</time>
      </trkpt>
      <trkpt lat="45.3243" lon="1.12513">
        <ele>-0.66447614709466</ele>
        <time>2011-10-30 11:08:07</time>
      </trkpt>
      <trkpt lat="45.32468" lon="1.12509">
        <ele>-1.1862603897156</ele>
        <time>2011-10-30 11:08:13</time>
      </trkpt>
      <trkpt lat="45.32507" lon="1.12506">
        <ele>-0.97801613140905</ele>
        <time>2011-10-30 11:08:21</time>
      </trkpt>
      <trkpt lat="45.32543" lon="1.12514">
        <ele>-1.3644268491266</ele>
        <time>2011-10-30 11:08:29</time>
      </trkpt>
      <trkpt lat="45.32582" lon="1.12521">
        <ele>-0.33910089642757</ele>
        <time>2011-10-30 11:08:39</time>
      </trkpt>
      <trkpt lat="45.3262" lon="1.12525">
        <ele>-0.7821379889449</ele>
        <time>2011-10-30 11:08:52</time>
      </trkpt>
      <trkpt lat="45.32654" lon="1.12543">
        <ele>-0.36541057393504</ele>
        <time>2011-10-30 11:09:09</time>
      </trkpt>
      <trkpt lat="45.3269" lon="1.1255">
        <ele>-0.76860570954364</ele>
        <time>2011-10-30 11:09:32</time>
      </trkpt>
      <trkpt lat="45.32727" lon="1.12555">
        <ele>-0.48983592351146</ele>
        <time>2011-10-30 11:09:55</time>
      </trkpt>
      <trkpt lat="45.32764" lon="1.12567">
        <ele>-0.82655767934466</ele>
        <time>2011-10-30 11:10:14</time>
      </trkpt>
      <trkpt lat="45.32798" lon="1.12584">
        <ele>-0.42666324895526</ele>
        <time>2011-10-30 11:10:28</time>
      </trkpt>
      <trkpt lat="45.32833" lon="1.12608">
        <ele>-0.66008959621513</ele>
        <time>2011-10-30 11:10:45</time>
      </trkpt>
      <trkpt lat="45.32867" lon="1.12632">
        <ele>-0.19008168714129</ele>
        <time>2011-10-30 11:11:01</time>
      </trkpt>
      <trkpt lat="45.32901" lon="1.1265">
        <ele>-0.47922156063657</ele>
        <time>2011-10-30 11:11:18</time>
      </trkpt>
      <trkpt lat="45.32937" lon="1.12662">
        <ele>-0.82884512056296</ele>
        <time>2011-10-30 11:11:35</time>
      </trkpt>
      <trkpt lat="45.32971" lon="1.1268">
        <ele>-0.42772184014268</ele>
        <time>2011-10-30 11:11:52</time>
      </trkpt>
      <trkpt lat="45.33005" lon="1.12698">
        <ele>-0.72590717332844</ele>
        <time>2011-10-30 11:12:09</time>
      </trkpt>
      <trkpt lat="45.3304" lon="1.12707">
        <ele>-0.40560346581105</ele>
        <time>2011-10-30 11:12:26</time>
      </trkpt>
      <trkpt lat="45.33073" lon="1.1273">
        <ele>-0.65598442382691</ele>
        <time>2011-10-30 11:12:40</time>
      </trkpt>
      <trkpt lat="45.33096" lon="1.12773">
        <ele>-0.74815794283131</ele>
        <time>2011-10-30 11:12:56</time>
      </trkpt>
      <trkpt lat="45.33117" lon="1.12817">
        <ele>-0.8463173214127</ele>
        <time>2011-10-30 11:13:10</time>
      </trkpt>
      <trkpt lat="45.33143" lon="1.12858">
        <ele>-0.23403114206974</ele>
        <time>2011-10-30 11:13:23</time>
      </trkpt>
      <trkpt lat="45.33178" lon="1.12878">
        <ele>-1.2018968334514</ele>
        <time>2011-10-30 11:13:35</time>
      </trkpt>
      <trkpt lat="45.33217" lon="1.12872">
        <ele>-0.31112626448407</ele>
        <time>2011-10-30 11:13:47</time>
      </trkpt>
      <trkpt lat="45.33253" lon="1.12863">
        <ele>-0.89340985302795</ele>
        <time>2011-10-30 11:13:55</time>
      </trkpt>
      <trkpt lat="45.33288" lon="1.12838">
        <ele>-0.94218389880598</ele>
        <time>2011-10-30 11:14:03</time>
      </trkpt>
      <trkpt lat="45.33319" lon="1.12808">
        <ele>-0.3680755820485</ele>
        <time>2011-10-30 11:14:11</time>
      </trkpt>
      <trkpt lat="45.33352" lon="1.12779">
        <ele>-1.1820532830782</ele>
        <time>2011-10-30 11:14:18</time>
      </trkpt>
      <trkpt lat="45.3339" lon="1.12753">
        <ele>-1.2146486550695</ele>
        <time>2011-10-30 11:14:24</time>
      </trkpt>
      <trkpt lat="45.33425" lon="1.12721">
        <ele>-1.3498271074733</ele>
        <time>2011-10-30 11:14:29</time>
      </trkpt>
      <trkpt lat="45.3346" lon="1.127">
        <ele>-0.64587114392611</ele>
        <time>2011-10-30 11:14:33</time>
      </trkpt>
      <trkpt lat="45.33498" lon="1.12703">
        <ele>-0.36506490224372</ele>
        <time>2011-10-30 11:14:37</time>
      </trkpt>
      <trkpt lat="45.3354" lon="1.12716">
        <ele>-0.66444265672749</ele>
        <time>2011-10-30 11:14:42</time>
      </trkpt>
      <trkpt lat="45.3358" lon="1.12734">
        <ele>-0.92435810809059</ele>
        <time>2011-10-30 11:14:47</time>
      </trkpt>
      <trkpt lat="45.3362" lon="1.12752">
        <ele>-1.1758741510931</ele>
        <time>2011-10-30 11:14:53</time>
      </trkpt>
      <trkpt lat="45.33654" lon="1.12768">
        <ele>-0.77824469316988</ele>
        <time>2011-10-30 11:15:00</time>
      </trkpt>
      <trkpt lat="45.33689" lon="1.12782">
        <ele>-0.40164733489428</ele>
        <time>2011-10-30 11:15:08</time>
      </trkpt>
      <trkpt lat="45.33726" lon="1.12776">
        <ele>-0.93679815710675</ele>
        <time>2011-10-30 11:15:14</time>
      </trkpt>
      <trkpt lat="45.33761" lon="1.12758">
        <ele>-0.9079839074717</ele>
        <time>2011-10-30 11:15:22</time>
      </trkpt>
      <trkpt lat="45.33798" lon="1.12746">
        <ele>-0.80458916689781</ele>
        <time>2011-10-30 11:15:30</time>
      </trkpt>
      <trkpt lat="45.33836" lon="1.12741">
        <ele>-1.3164441714802</ele>
        <time>2011-10-30 11:15:42</time>
      </trkpt>
      <trkpt lat="45.33862" lon="1.12702">
        <ele>-0.86289836650838</ele>
        <time>2011-10-30 11:15:53</time>
      </trkpt>
      <trkpt lat="45.33872" lon="1.12653">
        <ele>-0.63224911358316</ele>
        <time>2011-10-30 11:16:01</time>
      </trkpt>
      <trkpt lat="45.33909" lon="1.12645">
        <ele>-0.4842778669389</ele>
        <time>2011-10-30 11:16:14</time>
      </trkpt>
      <trkpt lat="45.33939" lon="1.12676">
        <ele>-0.66103969862843</ele>
        <time>2011-10-30 11:16:34</time>
      </trkpt>
      <trkpt lat="45.33974" lon="1.12691">
        <ele>-0.98218354316077</ele>
        <time>2011-10-30 11:17:03</time>
      </trkpt>
      <trkpt lat="45.34005" lon="1.12719">
        <ele>-0.46222616543218</ele>
        <time>2011-10-30 11:17:40</time>
      </trkpt>
      <trkpt lat="45.3404" lon="1.12737">
        <ele>-0.7569862811572</ele>
        <time>2011-10-30 11:18:05</time>
      </trkpt>
      <trkpt lat="45.34071" lon="1.12765">
        <ele>-0.94424195945919</ele>
        <time>2011-10-30 11:18:33</time>
      </trkpt>
      <trkpt lat="45.34099" lon="1.12799">
        <ele>-0.39575219885285</ele>
        <time>2011-10-30 11:18:58</time>
      </trkpt>
      <trkpt lat="45.34107" lon="1.1285">
        <ele>-1.1963140395015</ele>
        <time>2011-10-30 11:19:28</time>
      </trkpt>
      <trkpt lat="45.34124" lon="1.12899">
        <ele>-1.266922515041</ele>
        <time>2011-10-30 11:19:53</time>
      </trkpt>
      <trkpt lat="45.34148" lon="1.1294">
        <ele>-0.65437360979627</ele>
        <time>2011-10-30 11:20:11</time>
      </trkpt>
      <trkpt lat="45.34168" lon="1.12984">
        <ele>-0.75243277879952</ele>
        <time>2011-10-30 11:20:29</time>
      </trkpt>
      <trkpt lat="45.34195" lon="1.13018">
        <ele>-0.91071454867369</ele>
        <time>2011-10-30 11:20:44</time>
      </trkpt>
      <trkpt lat="45.34222" lon="1.13055">
        <ele>-1.0347516301639</ele>
        <time>2011-10-30 11:20:59</time>
      </trkpt>
      <trkpt lat="45.34251" lon="1.13093">
        <ele>-1.1440240644594</ele>
        <time>2011-10-30 11:21:15</time>
      </trkpt>
      <trkpt lat="45.34274" lon="1.13132">
        <ele>-0.56617387469532</ele>
        <time>2011-10-30 11:21:31</time>
      </trkpt>
      <trkpt lat="45.34287" lon="1.1318">
        <ele>-1.3673141766679</ele>
        <time>2011-10-30 11:21:46</time>
      </trkpt>
      <trkpt lat="45.3431" lon="1.13223">
        <ele>-0.7452715315095</ele>
        <time>2011-10-30 11:22:02</time>
      </trkpt>
      <trkpt lat="45.34335" lon="1.13263">
        <ele>-0.85190316095304</ele>
        <time>2011-10-30 11:22:14</time>
      </trkpt>
      <trkpt lat="45.34356" lon="1.13307">
        <ele>-0.24071485683055</ele>
        <time>2011-10-30 11:22:24</time>
      </trkpt>
      <trkpt lat="45.34379" lon="1.13348">
        <ele>-0.34364658606444</ele>
        <time>2011-10-30 11:22:33</time>
      </trkpt>
      <trkpt lat="45.34405" lon="1.13391">
        <ele>-1.1119966081803</ele>
        <time>2011-10-30 11:22:42</time>
      </trkpt>
      <trkpt lat="45.34434" lon="1.1343">
        <ele>-1.2114412127489</ele>
        <time>2011-10-30 11:22:51</time>
      </trkpt>
      <trkpt lat="45.34463" lon="1.13463">
        <ele>-0.64517067094744</ele>
        <time>2011-10-30 11:23:00</time>
      </trkpt>
      <trkpt lat="45.34492" lon="1.13493">
        <ele>-0.8352178719789</ele>
        <time>2011-10-30 11:23:10</time>
      </trkpt>
      <trkpt lat="45.34495" lon="1.13547">
        <ele>-0.9333597052439</ele>
        <time>2011-10-30 11:23:22</time>
      </trkpt>
      <trkpt lat="45.34533" lon="1.13538">
        <ele>-0.78462770290093</ele>
        <time>2011-10-30 11:23:33</time>
      </trkpt>
      <trkpt lat="45.34572" lon="1.13551">
        <ele>-1.0848290882344</ele>
        <time>2011-10-30 11:23:41</time>
      </trkpt>
      <trkpt lat="45.34609" lon="1.13565">
        <ele>-0.6964998552445</ele>
        <time>2011-10-30 11:23:48</time>
      </trkpt>
      <trkpt lat="45.34647" lon="1.13577">
        <ele>-1.0140064079461</ele>
        <time>2011-10-30 11:23:56</time>
      </trkpt>
      <trkpt lat="45.34683" lon="1.13587">
        <ele>-0.67392069357777</ele>
        <time>2011-10-30 11:24:04</time>
      </trkpt>
      <trkpt lat="45.3472" lon="1.13586">
        <ele>-0.43277273304557</ele>
        <time>2011-10-30 11:24:13</time>
      </trkpt>
      <trkpt lat="45.34714" lon="1.13638">
        <ele>-0.61198146056017</ele>
        <time>2011-10-30 11:24:28</time>
      </trkpt>
      <trkpt lat="45.34698" lon="1.13689">
        <ele>-0.86270242826379</ele>
        <time>2011-10-30 11:24:42</time>
      </trkpt>
      <trkpt lat="45.34707" lon="1.1374">
        <ele>-0.9421944758742</ele>
        <time>2011-10-30 11:24:58</time>
      </trkpt>
      <trkpt lat="45.34743" lon="1.13769">
        <ele>-0.39163797568233</ele>
        <time>2011-10-30 11:25:07</time>
      </trkpt>
      <trkpt lat="45.34714" lon="1.13805">
        <ele>-0.89292740898418</ele>
        <time>2011-10-30 11:25:18</time>
      </trkpt>
      <trkpt lat="45.34678" lon="1.13823">
        <ele>-0.93538947178115</ele>
        <time>2011-10-30 11:25:31</time>
      </trkpt>
      <trkpt lat="45.34645" lon="1.1385">
        <ele>-0.8538417587821</ele>
        <time>2011-10-30 11:25:41</time>
      </trkpt>
      <trkpt lat="45.34611" lon="1.1388">
        <ele>-0.74597100983408</ele>
        <time>2011-10-30 11:25:50</time>
      </trkpt>
      <trkpt lat="45.34578" lon="1.1391">
        <ele>-0.63784009019093</ele>
        <time>2011-10-30 11:25:57</time>
      </trkpt>
      <trkpt lat="45.3455" lon="1.13945">
        <ele>-0.43835189911215</ele>
        <time>2011-10-30 11:26:03</time>
      </trkpt>
      <trkpt lat="45.34526" lon="1.13984">
        <ele>-0.87320369597683</ele>
        <time>2011-10-30 11:26:09</time>
      </trkpt>
      <trkpt lat="45.34501" lon="1.14027">
        <ele>-0.56097221821017</ele>
        <time>2011-10-30 11:26:16</time>
      </trkpt>
      <trkpt lat="45.34485" lon="1.14075">
        <ele>-0.84089769519369</ele>
        <time>2011-10-30 11:26:23</time>
      </trkpt>
      <trkpt lat="45.34473" lon="1.14129">
        <ele>-1.0393401350478</ele>
        <time>2011-10-30 11:26:29</time>
      </trkpt>
      <trkpt lat="45.34466" lon="1.1418">
        <ele>-0.52194675658745</ele>
        <time>2011-10-30 11:26:34</time>
      </trkpt>
      <trkpt lat="45.34453" lon="1.14229">
        <ele>-0.77375143463439</ele>
        <time>2011-10-30 11:26:39</time>
      </trkpt>
      <trkpt lat="45.34428" lon="1.14274">
        <ele>-0.43446561397945</ele>
        <time>2011-10-30 11:26:44</time>
      </trkpt>
      <trkpt lat="45.34402" lon="1.1432">
        <ele>-0.099763455588572</ele>
        <time>2011-10-30 11:26:49</time>
      </trkpt>
      <trkpt lat="45.34377" lon="1.14365">
        <ele>-0.46771563649588</ele>
        <time>2011-10-30 11:26:54</time>
      </trkpt>
      <trkpt lat="45.34349" lon="1.14408">
        <ele>-0.88094494260974</ele>
        <time>2011-10-30 11:27:00</time>
      </trkpt>
      <trkpt lat="45.34325" lon="1.14448">
        <ele>-1.3056738650704</ele>
        <time>2011-10-30 11:27:06</time>
      </trkpt>
      <trkpt lat="45.34307" lon="1.145">
        <ele>-0.13397165686581</ele>
        <time>2011-10-30 11:27:13</time>
      </trkpt>
      <trkpt lat="45.34282" lon="1.14545">
        <ele>-0.51896678248897</ele>
        <time>2011-10-30 11:27:20</time>
      </trkpt>
      <trkpt lat="45.34252" lon="1.14585">
        <ele>-0.97675719354379</ele>
        <time>2011-10-30 11:27:26</time>
      </trkpt>
      <trkpt lat="45.34217" lon="1.14599">
        <ele>-1.036672001637</ele>
        <time>2011-10-30 11:27:31</time>
      </trkpt>
      <trkpt lat="45.34202" lon="1.14655">
        <ele>-1.2308626022806</ele>
        <time>2011-10-30 11:27:37</time>
      </trkpt>
      <trkpt lat="45.3419" lon="1.14714">
        <ele>-0.66188740663063</ele>
        <time>2011-10-30 11:27:43</time>
      </trkpt>
      <trkpt lat="45.34159" lon="1.1475">
        <ele>-0.45999323457488</ele>
        <time>2011-10-30 11:27:48</time>
      </trkpt>
      <trkpt lat="45.34144" lon="1.14798">
        <ele>-0.72236677990452</ele>
        <time>2011-10-30 11:27:54</time>
      </trkpt>
      <trkpt lat="45.34138" lon="1.14854">
        <ele>-0.13568700949702</ele>
        <time>2011-10-30 11:28:16</time>
      </trkpt>
      <trkpt lat="45.34139" lon="1.14907">
        <ele>-0.97012136399917</ele>
        <time>2011-10-30 11:28:22</time>
      </trkpt>
      <trkpt lat="45.34175" lon="1.14925">
        <ele>-0.52639973310772</ele>
        <time>2011-10-30 11:28:30</time>
      </trkpt>
      <trkpt lat="45.34207" lon="1.14888">
        <ele>-0.74177545906093</ele>
        <time>2011-10-30 11:28:41</time>
      </trkpt>
      <trkpt lat="45.34236" lon="1.14849">
        <ele>-0.97464890242361</ele>
        <time>2011-10-30 11:28:48</time>
      </trkpt>
      <trkpt lat="45.34276" lon="1.14834">
        <ele>-0.87612777548441</ele>
        <time>2011-10-30 11:28:53</time>
      </trkpt>
      <trkpt lat="45.34308" lon="1.14804">
        <ele>-1.0023252293321</ele>
        <time>2011-10-30 11:29:00</time>
      </trkpt>
      <trkpt lat="45.34348" lon="1.14817">
        <ele>-1.3164256287153</ele>
        <time>2011-10-30 11:29:10</time>
      </trkpt>
      <trkpt lat="45.34382" lon="1.14835">
        <ele>-0.18305501574332</ele>
        <time>2011-10-30 11:29:17</time>
      </trkpt>
      <trkpt lat="45.34412" lon="1.14804">
        <ele>-0.32163763157223</ele>
        <time>2011-10-30 11:29:27</time>
      </trkpt>
      <trkpt lat="45.34425" lon="1.14854">
        <ele>-0.3921679714</ele>
        <time>2011-10-30 11:29:43</time>
      </trkpt>
      <trkpt lat="45.34405" lon="1.14899">
        <ele>-0.72982710147176</ele>
        <time>2011-10-30 11:29:56</time>
      </trkpt>
      <trkpt lat="45.34386" lon="1.14944">
        <ele>-1.0609376148835</ele>
        <time>2011-10-30 11:30:16</time>
      </trkpt>
      <trkpt lat="45.34373" lon="1.14998">
        <ele>-0.54048364805556</ele>
        <time>2011-10-30 11:30:28</time>
      </trkpt>
      <trkpt lat="45.3436" lon="1.15054">
        <ele>-0.7144942785751</ele>
        <time>2011-10-30 11:30:35</time>
      </trkpt>
      <trkpt lat="45.34355" lon="1.15109">
        <ele>-0.83839665205721</ele>
        <time>2011-10-30 11:30:42</time>
      </trkpt>
      <trkpt lat="45.34358" lon="1.15161">
        <ele>-0.94975250389632</ele>
        <time>2011-10-30 11:30:48</time>
      </trkpt>
      <trkpt lat="45.34379" lon="1.15205">
        <ele>-1.0317541011017</ele>
        <time>2011-10-30 11:30:54</time>
      </trkpt>
      <trkpt lat="45.34415" lon="1.1523">
        <ele>-1.2282270225675</ele>
        <time>2011-10-30 11:31:06</time>
      </trkpt>
      <trkpt lat="45.34447" lon="1.15258">
        <ele>-0.70492934238632</ele>
        <time>2011-10-30 11:31:14</time>
      </trkpt>
      <trkpt lat="45.34478" lon="1.15295">
        <ele>-0.086005547224317</ele>
        <time>2011-10-30 11:31:20</time>
      </trkpt>
      <trkpt lat="45.34501" lon="1.15339">
        <ele>-0.85062997323939</ele>
        <time>2011-10-30 11:31:28</time>
      </trkpt>
      <trkpt lat="45.34528" lon="1.15375">
        <ele>-0.97643475875475</ele>
        <time>2011-10-30 11:31:35</time>
      </trkpt>
      <trkpt lat="45.34548" lon="1.15419">
        <ele>-0.36413407944781</ele>
        <time>2011-10-30 11:31:48</time>
      </trkpt>
      <trkpt lat="45.34573" lon="1.1546">
        <ele>-1.1495478897402</ele>
        <time>2011-10-30 11:32:41</time>
      </trkpt>
      <trkpt lat="45.34606" lon="1.15489">
        <ele>-0.60686718643103</ele>
        <time>2011-10-30 11:32:55</time>
      </trkpt>
      <trkpt lat="45.34627" lon="1.15538">
        <ele>-0.63448265463751</ele>
        <time>2011-10-30 11:33:09</time>
      </trkpt>
      <trkpt lat="45.34648" lon="1.15588">
        <ele>-0.63896273421256</ele>
        <time>2011-10-30 11:33:20</time>
      </trkpt>
      <trkpt lat="45.34666" lon="1.15637">
        <ele>-0.67591093580108</ele>
        <time>2011-10-30 11:33:29</time>
      </trkpt>
      <trkpt lat="45.3468" lon="1.15689">
        <ele>-0.72054163969267</ele>
        <time>2011-10-30 11:33:38</time>
      </trkpt>
      <trkpt lat="45.34689" lon="1.1574">
        <ele>-0.79432086229747</ele>
        <time>2011-10-30 11:33:48</time>
      </trkpt>
      <trkpt lat="45.34697" lon="1.1579">
        <ele>-0.89088286951164</ele>
        <time>2011-10-30 11:33:56</time>
      </trkpt>
      <trkpt lat="45.34711" lon="1.1584">
        <ele>-0.94327731412943</ele>
        <time>2011-10-30 11:34:05</time>
      </trkpt>
      <trkpt lat="45.34708" lon="1.15891">
        <ele>-1.1046099220846</ele>
        <time>2011-10-30 11:34:14</time>
      </trkpt>
      <trkpt lat="45.34713" lon="1.15943">
        <ele>-1.1841619565538</ele>
        <time>2011-10-30 11:34:24</time>
      </trkpt>
      <trkpt lat="45.34701" lon="1.15994">
        <ele>-0.70102976915405</ele>
        <time>2011-10-30 11:34:35</time>
      </trkpt>
      <trkpt lat="45.34691" lon="1.16054">
        <ele>-0.79896681582261</ele>
        <time>2011-10-30 11:34:45</time>
      </trkpt>
      <trkpt lat="45.34679" lon="1.16103">
        <ele>-0.3237742279457</ele>
        <time>2011-10-30 11:34:55</time>
      </trkpt>
      <trkpt lat="45.34662" lon="1.1615">
        <ele>-0.61672504265255</ele>
        <time>2011-10-30 11:35:09</time>
      </trkpt>
      <trkpt lat="45.34637" lon="1.16187">
        <ele>-0.37568326513826</ele>
        <time>2011-10-30 11:35:28</time>
      </trkpt>
      <trkpt lat="45.34601" lon="1.16213">
        <ele>-1.0209121114757</ele>
        <time>2011-10-30 11:35:44</time>
      </trkpt>
      <trkpt lat="45.34575" lon="1.16249">
        <ele>-0.77943804667745</ele>
        <time>2011-10-30 11:36:00</time>
      </trkpt>
      <trkpt lat="45.34567" lon="1.16299">
        <ele>-0.98680853829717</ele>
        <time>2011-10-30 11:36:14</time>
      </trkpt>
      <trkpt lat="45.3458" lon="1.1635">
        <ele>-0.31717890143455</ele>
        <time>2011-10-30 11:36:29</time>
      </trkpt>
      <trkpt lat="45.34605" lon="1.16394">
        <ele>-1.073856227369</ele>
        <time>2011-10-30 11:36:42</time>
      </trkpt>
      <trkpt lat="45.3463" lon="1.16434">
        <ele>-1.1719720767735</ele>
        <time>2011-10-30 11:36:53</time>
      </trkpt>
      <trkpt lat="45.34637" lon="1.16489">
        <ele>-0.50119286220399</ele>
        <time>2011-10-30 11:37:06</time>
      </trkpt>
      <trkpt lat="45.34648" lon="1.16539">
        <ele>-0.57132134239191</ele>
        <time>2011-10-30 11:37:37</time>
      </trkpt>
      <trkpt lat="45.34648" lon="1.16591">
        <ele>-0.68809344090766</ele>
        <time>2011-10-30 11:37:59</time>
      </trkpt>
      <trkpt lat="45.34628" lon="1.16634">
        <ele>-1.0486338089328</ele>
        <time>2011-10-30 11:38:13</time>
      </trkpt>
      <trkpt lat="45.34599" lon="1.16668">
        <ele>-0.14953814704665</ele>
        <time>2011-10-30 11:38:33</time>
      </trkpt>
      <trkpt lat="45.34562" lon="1.1667">
        <ele>-0.3716237981123</ele>
        <time>2011-10-30 11:38:44</time>
      </trkpt>
      <trkpt lat="45.34525" lon="1.16671">
        <ele>-0.60179234985708</ele>
        <time>2011-10-30 11:38:54</time>
      </trkpt>
      <trkpt lat="45.34498" lon="1.16706">
        <ele>-0.39172323271237</ele>
        <time>2011-10-30 11:39:07</time>
      </trkpt>
      <trkpt lat="45.34477" lon="1.1675">
        <ele>-0.020644496585419</ele>
        <time>2011-10-30 11:39:20</time>
      </trkpt>
      <trkpt lat="45.34483" lon="1.16804">
        <ele>-0.79242312988288</ele>
        <time>2011-10-30 11:39:31</time>
      </trkpt>
      <trkpt lat="45.3449" lon="1.16857">
        <ele>-0.13882297915325</ele>
        <time>2011-10-30 11:39:44</time>
      </trkpt>
      <trkpt lat="45.34499" lon="1.1691">
        <ele>-0.90893446782582</ele>
        <time>2011-10-30 11:39:55</time>
      </trkpt>
      <trkpt lat="45.34498" lon="1.16966">
        <ele>-0.98482383927365</ele>
        <time>2011-10-30 11:40:07</time>
      </trkpt>
      <trkpt lat="45.345" lon="1.17019">
        <ele>-1.0808860942535</ele>
        <time>2011-10-30 11:40:19</time>
      </trkpt>
      <trkpt lat="45.34507" lon="1.17071">
        <ele>-1.1524802233266</ele>
        <time>2011-10-30 11:40:29</time>
      </trkpt>
      <trkpt lat="45.34513" lon="1.17123">
        <ele>-1.2239159873885</ele>
        <time>2011-10-30 11:40:39</time>
      </trkpt>
      <trkpt lat="45.34506" lon="1.17176">
        <ele>-0.67987774100038</ele>
        <time>2011-10-30 11:40:50</time>
      </trkpt>
      <trkpt lat="45.34489" lon="1.17225">
        <ele>-0.23028574845171</ele>
        <time>2011-10-30 11:40:59</time>
      </trkpt>
      <trkpt lat="45.34487" lon="1.1728">
        <ele>-0.32818870655967</ele>
        <time>2011-10-30 11:41:09</time>
      </trkpt>
      <trkpt lat="45.34492" lon="1.17335">
        <ele>-1.0801969494029</ele>
        <time>2011-10-30 11:41:21</time>
      </trkpt>
      <trkpt lat="45.34505" lon="1.17386">
        <ele>-1.1252644887798</ele>
        <time>2011-10-30 11:41:30</time>
      </trkpt>
      <trkpt lat="45.34515" lon="1.17439">
        <ele>-0.46857988332101</ele>
        <time>2011-10-30 11:41:40</time>
      </trkpt>
      <trkpt lat="45.34529" lon="1.17486">
        <ele>-0.54342431280736</ele>
        <time>2011-10-30 11:41:49</time>
      </trkpt>
      <trkpt lat="45.34544" lon="1.17538">
        <ele>-1.2762077985138</ele>
        <time>2011-10-30 11:41:58</time>
      </trkpt>
      <trkpt lat="45.34552" lon="1.17596">
        <ele>-0.55250131053754</ele>
        <time>2011-10-30 11:42:06</time>
      </trkpt>
      <trkpt lat="45.34561" lon="1.17649">
        <ele>-0.60284058231036</ele>
        <time>2011-10-30 11:42:13</time>
      </trkpt>
      <trkpt lat="45.34568" lon="1.17705">
        <ele>-0.61794119958211</ele>
        <time>2011-10-30 11:42:21</time>
      </trkpt>
      <trkpt lat="45.34569" lon="1.17761">
        <ele>-0.68161668071093</ele>
        <time>2011-10-30 11:42:29</time>
      </trkpt>
      <trkpt lat="45.34569" lon="1.17814">
        <ele>-0.79480400391662</ele>
        <time>2011-10-30 11:42:38</time>
      </trkpt>
      <trkpt lat="45.34576" lon="1.17866">
        <ele>-0.85420894191282</ele>
        <time>2011-10-30 11:42:46</time>
      </trkpt>
      <trkpt lat="45.34578" lon="1.1792">
        <ele>-0.93914455921981</ele>
        <time>2011-10-30 11:42:56</time>
      </trkpt>
      <trkpt lat="45.34575" lon="1.17971">
        <ele>-0.37694813799408</ele>
        <time>2011-10-30 11:43:05</time>
      </trkpt>
      <trkpt lat="45.34565" lon="1.18022">
        <ele>-0.56618307541282</ele>
        <time>2011-10-30 11:43:16</time>
      </trkpt>
      <trkpt lat="45.34544" lon="1.18065">
        <ele>-0.21032404124617</ele>
        <time>2011-10-30 11:43:29</time>
      </trkpt>
      <trkpt lat="45.34515" lon="1.18096">
        <ele>-0.052190527955645</ele>
        <time>2011-10-30 11:43:43</time>
      </trkpt>
      <trkpt lat="45.34478" lon="1.181">
        <ele>-0.24686408443006</ele>
        <time>2011-10-30 11:43:58</time>
      </trkpt>
      <trkpt lat="45.34438" lon="1.18087">
        <ele>-0.65713312487003</ele>
        <time>2011-10-30 11:44:09</time>
      </trkpt>
      <trkpt lat="45.34415" lon="1.18045">
        <ele>-0.57521121622494</ele>
        <time>2011-10-30 11:44:21</time>
      </trkpt>
      <trkpt lat="45.34423" lon="1.17995">
        <ele>-1.0988767448471</ele>
        <time>2011-10-30 11:44:33</time>
      </trkpt>
      <trkpt lat="45.34392" lon="1.17967">
        <ele>-0.91370453153456</ele>
        <time>2011-10-30 11:45:00</time>
      </trkpt>
      <trkpt lat="45.34355" lon="1.17964">
        <ele>-0.48458479723252</ele>
        <time>2011-10-30 11:45:12</time>
      </trkpt>
      <trkpt lat="45.3433" lon="1.17922">
        <ele>-1.1242862224384</ele>
        <time>2011-10-30 11:45:20</time>
      </trkpt>
      <trkpt lat="45.34321" lon="1.1787">
        <ele>-1.0743490279077</ele>
        <time>2011-10-30 11:45:32</time>
      </trkpt>
      <trkpt lat="45.34288" lon="1.17841">
        <ele>-0.91616556010138</ele>
        <time>2011-10-30 11:45:39</time>
      </trkpt>
      <trkpt lat="45.34251" lon="1.17824">
        <ele>-0.64258013961921</ele>
        <time>2011-10-30 11:45:50</time>
      </trkpt>
      <trkpt lat="45.34214" lon="1.17827">
        <ele>-0.14095219800799</ele>
        <time>2011-10-30 11:46:01</time>
      </trkpt>
      <trkpt lat="45.34179" lon="1.17853">
        <ele>-0.78092654683769</ele>
        <time>2011-10-30 11:46:15</time>
      </trkpt>
      <trkpt lat="45.34146" lon="1.1788">
        <ele>-0.67543769700342</ele>
        <time>2011-10-30 11:46:26</time>
      </trkpt>
      <trkpt lat="45.34117" lon="1.17917">
        <ele>-1.1552420416764</ele>
        <time>2011-10-30 11:46:37</time>
      </trkpt>
      <trkpt lat="45.34092" lon="1.17953">
        <ele>-0.90785409706052</ele>
        <time>2011-10-30 11:46:58</time>
      </trkpt>
      <trkpt lat="45.34071" lon="1.17995">
        <ele>-0.56845706181548</ele>
        <time>2011-10-30 11:47:12</time>
      </trkpt>
      <trkpt lat="45.34064" lon="1.18046">
        <ele>-0.029711410221694</ele>
        <time>2011-10-30 11:47:23</time>
      </trkpt>
      <trkpt lat="45.34061" lon="1.18101">
        <ele>-0.84234801363357</ele>
        <time>2011-10-30 11:47:39</time>
      </trkpt>
      <trkpt lat="45.34069" lon="1.1815">
        <ele>-0.92347605018733</ele>
        <time>2011-10-30 11:47:54</time>
      </trkpt>
      <trkpt lat="45.3407" lon="1.18205">
        <ele>-0.99434023518336</ele>
        <time>2011-10-30 11:48:03</time>
      </trkpt>
      <trkpt lat="45.34063" lon="1.18258">
        <ele>-0.44652980666422</ele>
        <time>2011-10-30 11:48:11</time>
      </trkpt>
      <trkpt lat="45.34048" lon="1.18304">
        <ele>-0.71737923854289</ele>
        <time>2011-10-30 11:48:19</time>
      </trkpt>
      <trkpt lat="45.34056" lon="1.18358">
        <ele>-0.75301496608415</ele>
        <time>2011-10-30 11:48:27</time>
      </trkpt>
      <trkpt lat="45.34061" lon="1.18414">
        <ele>-0.79077790088024</ele>
        <time>2011-10-30 11:48:36</time>
      </trkpt>
      <trkpt lat="45.34066" lon="1.18466">
        <ele>-0.87203709302287</ele>
        <time>2011-10-30 11:48:47</time>
      </trkpt>
      <trkpt lat="45.34057" lon="1.18518">
        <ele>-0.34271064236816</ele>
        <time>2011-10-30 11:49:04</time>
      </trkpt>
      <trkpt lat="45.34038" lon="1.18563">
        <ele>-0.64531406320725</ele>
        <time>2011-10-30 11:49:20</time>
      </trkpt>
      <trkpt lat="45.34044" lon="1.18616">
        <ele>-0.71294543699571</ele>
        <time>2011-10-30 11:49:38</time>
      </trkpt>
      <trkpt lat="45.34045" lon="1.18668">
        <ele>-0.80913143780015</ele>
        <time>2011-10-30 11:49:52</time>
      </trkpt>
      <trkpt lat="45.34044" lon="1.18719">
        <ele>-0.93290485873263</ele>
        <time>2011-10-30 11:50:08</time>
      </trkpt>
      <trkpt lat="45.34037" lon="1.18771">
        <ele>-0.38355546646653</ele>
        <time>2011-10-30 11:50:30</time>
      </trkpt>
      <trkpt lat="45.34007" lon="1.18806">
        <ele>-0.88393098605252</ele>
        <time>2011-10-30 11:50:44</time>
      </trkpt>
      <trkpt lat="45.33985" lon="1.18847">
        <ele>-0.55542123954103</ele>
        <time>2011-10-30 11:50:59</time>
      </trkpt>
      <trkpt lat="45.33989" lon="1.18898">
        <ele>-0.65000845899999</ele>
        <time>2011-10-30 11:51:16</time>
      </trkpt>
      <trkpt lat="45.33975" lon="1.1895">
        <ele>-0.85088753844946</ele>
        <time>2011-10-30 11:51:37</time>
      </trkpt>
      <trkpt lat="45.33976" lon="1.19001">
        <ele>-0.96439525028143</ele>
        <time>2011-10-30 11:51:55</time>
      </trkpt>
      <trkpt lat="45.33986" lon="1.19054">
        <ele>-0.29414934582894</ele>
        <time>2011-10-30 11:52:07</time>
      </trkpt>
      <trkpt lat="45.34008" lon="1.19099">
        <ele>-0.34504611817329</ele>
        <time>2011-10-30 11:52:12</time>
      </trkpt>
      <trkpt lat="45.34009" lon="1.1915">
        <ele>-0.44835495111477</ele>
        <time>2011-10-30 11:52:19</time>
      </trkpt>
      <trkpt lat="45.33995" lon="1.19199">
        <ele>-0.67537811267721</ele>
        <time>2011-10-30 11:52:34</time>
      </trkpt>
      <trkpt lat="45.34001" lon="1.19252">
        <ele>-0.74591834863736</ele>
        <time>2011-10-30 11:52:55</time>
      </trkpt>
      <trkpt lat="45.33983" lon="1.19298">
        <ele>-1.0234183843245</ele>
        <time>2011-10-30 11:53:14</time>
      </trkpt>
      <trkpt lat="45.33957" lon="1.19337">
        <ele>-0.74568689711646</ele>
        <time>2011-10-30 11:53:37</time>
      </trkpt>
      <trkpt lat="45.33932" lon="1.19374">
        <ele>-1.1975614716913</ele>
        <time>2011-10-30 11:53:59</time>
      </trkpt>
      <trkpt lat="45.33906" lon="1.19338">
        <ele>-1.0720771766296</ele>
        <time>2011-10-30 11:55:00</time>
      </trkpt>
      <trkpt lat="45.33907" lon="1.19287">
        <ele>-0.24713109162542</ele>
        <time>2011-10-30 11:55:30</time>
      </trkpt>
      <trkpt lat="45.33899" lon="1.19237">
        <ele>-0.15917067151827</ele>
        <time>2011-10-30 11:55:58</time>
      </trkpt>
      <trkpt lat="45.33889" lon="1.19187">
        <ele>-0.80297329959069</ele>
        <time>2011-10-30 11:56:22</time>
      </trkpt>
      <trkpt lat="45.3388" lon="1.19238">
        <ele>-0.98272163074637</ele>
        <time>2011-10-30 11:57:01</time>
      </trkpt>
      <trkpt lat="45.33851" lon="1.1927">
        <ele>-0.79066114773195</ele>
        <time>2011-10-30 11:57:32</time>
      </trkpt>
      <trkpt lat="45.33815" lon="1.19282">
        <ele>-0.8853562850162</ele>
        <time>2011-10-30 11:57:57</time>
      </trkpt>
      <trkpt lat="45.33779" lon="1.19271">
        <ele>-0.537891143906</ele>
        <time>2011-10-30 11:58:20</time>
      </trkpt>
      <trkpt lat="45.33758" lon="1.1923">
        <ele>-1.1541004930923</ele>
        <time>2011-10-30 11:58:57</time>
      </trkpt>
      <trkpt lat="45.33724" lon="1.19211">
        <ele>-0.16460628346636</ele>
        <time>2011-10-30 11:59:25</time>
      </trkpt>
      <trkpt lat="45.33692" lon="1.19186">
        <ele>-0.65795530242872</ele>
        <time>2011-10-30 11:59:47</time>
      </trkpt>
      <trkpt lat="45.33668" lon="1.19146">
        <ele>-0.57136586224783</ele>
        <time>2011-10-30 12:00:14</time>
      </trkpt>
      <trkpt lat="45.33629" lon="1.19152">
        <ele>-0.74609197276163</ele>
        <time>2011-10-30 12:00:44</time>
      </trkpt>
      <trkpt lat="45.33592" lon="1.1915">
        <ele>-0.30311277995406</ele>
        <time>2011-10-30 12:01:03</time>
      </trkpt>
      <trkpt lat="45.33556" lon="1.19162">
        <ele>-0.39609697090396</ele>
        <time>2011-10-30 12:01:18</time>
      </trkpt>
      <trkpt lat="45.33517" lon="1.19155">
        <ele>-0.72826135238438</ele>
        <time>2011-10-30 12:01:33</time>
      </trkpt>
      <trkpt lat="45.33479" lon="1.19148">
        <ele>-0.34787623033287</ele>
        <time>2011-10-30 12:01:47</time>
      </trkpt>
      <trkpt lat="45.33442" lon="1.19139">
        <ele>-0.67880276338951</ele>
        <time>2011-10-30 12:02:00</time>
      </trkpt>
      <trkpt lat="45.33406" lon="1.19127">
        <ele>-1.0545762754475</ele>
        <time>2011-10-30 12:02:15</time>
      </trkpt>
      <trkpt lat="45.33374" lon="1.19098">
        <ele>-0.87815755980057</ele>
        <time>2011-10-30 12:02:32</time>
      </trkpt>
      <trkpt lat="45.33345" lon="1.19132">
        <ele>-1.3877600086873</ele>
        <time>2011-10-30 12:02:46</time>
      </trkpt>
      <trkpt lat="45.33308" lon="1.19143">
        <ele>-0.78449885575935</ele>
        <time>2011-10-30 12:02:59</time>
      </trkpt>
      <trkpt lat="45.33271" lon="1.19148">
        <ele>-0.24894082539981</ele>
        <time>2011-10-30 12:03:15</time>
      </trkpt>
      <trkpt lat="45.33234" lon="1.19142">
        <ele>-0.551562572526</ele>
        <time>2011-10-30 12:03:32</time>
      </trkpt>
      <trkpt lat="45.33198" lon="1.19154">
        <ele>-0.6420822975615</ele>
        <time>2011-10-30 12:03:58</time>
      </trkpt>
      <trkpt lat="45.33165" lon="1.19129">
        <ele>-1.1366917631009</ele>
        <time>2011-10-30 12:04:23</time>
      </trkpt>
      <trkpt lat="45.33133" lon="1.19106">
        <ele>-0.90513876365253</ele>
        <time>2011-10-30 12:04:45</time>
      </trkpt>
      <trkpt lat="45.33101" lon="1.19081">
        <ele>-0.68187857196779</ele>
        <time>2011-10-30 12:05:03</time>
      </trkpt>
      <trkpt lat="45.33067" lon="1.19056">
        <ele>-0.47265246904976</ele>
        <time>2011-10-30 12:05:20</time>
      </trkpt>
      <trkpt lat="45.33033" lon="1.19039">
        <ele>-0.89035828520014</ele>
        <time>2011-10-30 12:05:36</time>
      </trkpt>
      <trkpt lat="45.32998" lon="1.19071">
        <ele>-0.7312630737556</ele>
        <time>2011-10-30 12:05:51</time>
      </trkpt>
      <trkpt lat="45.32965" lon="1.19107">
        <ele>-0.52229052048529</ele>
        <time>2011-10-30 12:05:57</time>
      </trkpt>
      <trkpt lat="45.3293" lon="1.19136">
        <ele>-0.41750665115308</ele>
        <time>2011-10-30 12:06:03</time>
      </trkpt>
      <trkpt lat="45.32914" lon="1.19187">
        <ele>-0.64208721411012</ele>
        <time>2011-10-30 12:06:15</time>
      </trkpt>
      <trkpt lat="45.32874" lon="1.19188">
        <ele>-0.87059141648297</ele>
        <time>2011-10-30 12:06:24</time>
      </trkpt>
      <trkpt lat="45.32838" lon="1.19181">
        <ele>-0.47134760061976</ele>
        <time>2011-10-30 12:06:32</time>
      </trkpt>
      <trkpt lat="45.32801" lon="1.19177">
        <ele>-0.75260943536625</ele>
        <time>2011-10-30 12:06:39</time>
      </trkpt>
      <trkpt lat="45.32761" lon="1.19178">
        <ele>-0.98468371241268</ele>
        <time>2011-10-30 12:06:44</time>
      </trkpt>
      <trkpt lat="45.32717" lon="1.19184">
        <ele>-0.4867172616531</ele>
        <time>2011-10-30 12:06:49</time>
      </trkpt>
      <trkpt lat="45.32678" lon="1.19189">
        <ele>-0.6641844685505</ele>
        <time>2011-10-30 12:06:54</time>
      </trkpt>
      <trkpt lat="45.32665" lon="1.19141">
        <ele>-0.60271529462739</ele>
        <time>2011-10-30 12:07:06</time>
      </trkpt>
      <trkpt lat="45.32663" lon="1.19087">
        <ele>-0.530233084305</ele>
        <time>2011-10-30 12:07:16</time>
      </trkpt>
      <trkpt lat="45.3266" lon="1.1903">
        <ele>-0.49292248875463</ele>
        <time>2011-10-30 12:07:24</time>
      </trkpt>
      <trkpt lat="45.32637" lon="1.18988">
        <ele>-1.1225961301301</ele>
        <time>2011-10-30 12:07:29</time>
      </trkpt>
      <trkpt lat="45.32603" lon="1.1897">
        <ele>-0.83833599299623</ele>
        <time>2011-10-30 12:07:33</time>
      </trkpt>
      <trkpt lat="45.32577" lon="1.18925">
        <ele>-0.80408986690077</ele>
        <time>2011-10-30 12:07:39</time>
      </trkpt>
      <trkpt lat="45.32553" lon="1.18887">
        <ele>-0.68485665480614</ele>
        <time>2011-10-30 12:07:43</time>
      </trkpt>
      <trkpt lat="45.32561" lon="1.18832">
        <ele>-0.55578315502578</ele>
        <time>2011-10-30 12:07:51</time>
      </trkpt>
      <trkpt lat="45.32555" lon="1.1878">
        <ele>-0.48255983747788</ele>
        <time>2011-10-30 12:07:57</time>
      </trkpt>
      <trkpt lat="45.32522" lon="1.18746">
        <ele>-0.37773366209967</ele>
        <time>2011-10-30 12:08:05</time>
      </trkpt>
      <trkpt lat="45.3249" lon="1.18721">
        <ele>-0.85338059137973</ele>
        <time>2011-10-30 12:08:12</time>
      </trkpt>
      <trkpt lat="45.32469" lon="1.18679">
        <ele>-0.76836884873251</ele>
        <time>2011-10-30 12:08:20</time>
      </trkpt>
      <trkpt lat="45.3245" lon="1.18626">
        <ele>-0.073919178368897</ele>
        <time>2011-10-30 12:08:27</time>
      </trkpt>
      <trkpt lat="45.32429" lon="1.18581">
        <ele>-0.72825844487022</ele>
        <time>2011-10-30 12:08:34</time>
      </trkpt>
      <trkpt lat="45.32407" lon="1.18539">
        <ele>-0.62439015116115</ele>
        <time>2011-10-30 12:08:42</time>
      </trkpt>
      <trkpt lat="45.32371" lon="1.18534">
        <ele>-0.21311449969028</ele>
        <time>2011-10-30 12:08:51</time>
      </trkpt>
      <trkpt lat="45.32338" lon="1.18497">
        <ele>-0.82684503136431</ele>
        <time>2011-10-30 12:09:01</time>
      </trkpt>
      <trkpt lat="45.32325" lon="1.18443">
        <ele>-0.81609366026714</ele>
        <time>2011-10-30 12:09:07</time>
      </trkpt>
      <trkpt lat="45.32314" lon="1.18393">
        <ele>-0.75586600111251</ele>
        <time>2011-10-30 12:09:12</time>
      </trkpt>
      <trkpt lat="45.32329" lon="1.18343">
        <ele>-1.2384932042195</ele>
        <time>2011-10-30 12:09:18</time>
      </trkpt>
      <trkpt lat="45.32357" lon="1.18301">
        <ele>-0.83702746691154</ele>
        <time>2011-10-30 12:09:24</time>
      </trkpt>
      <trkpt lat="45.32386" lon="1.18267">
        <ele>-0.33133720393857</ele>
        <time>2011-10-30 12:09:30</time>
      </trkpt>
      <trkpt lat="45.32387" lon="1.18211">
        <ele>-0.97736692927902</ele>
        <time>2011-10-30 12:09:37</time>
      </trkpt>
      <trkpt lat="45.32356" lon="1.18185">
        <ele>-0.75234222637835</ele>
        <time>2011-10-30 12:09:43</time>
      </trkpt>
      <trkpt lat="45.32326" lon="1.18155">
        <ele>-1.2850378809638</ele>
        <time>2011-10-30 12:09:49</time>
      </trkpt>
      <trkpt lat="45.32317" lon="1.18105">
        <ele>-0.49804316532163</ele>
        <time>2011-10-30 12:09:55</time>
      </trkpt>
      <trkpt lat="45.32311" lon="1.18051">
        <ele>-0.43520105106961</ele>
        <time>2011-10-30 12:10:01</time>
      </trkpt>
      <trkpt lat="45.32293" lon="1.17997">
        <ele>-0.45979915936402</ele>
        <time>2011-10-30 12:10:07</time>
      </trkpt>
      <trkpt lat="45.32263" lon="1.17964">
        <ele>-1.0269183348951</ele>
        <time>2011-10-30 12:10:12</time>
      </trkpt>
      <trkpt lat="45.32227" lon="1.17934">
        <ele>-0.17480038797112</ele>
        <time>2011-10-30 12:10:17</time>
      </trkpt>
      <trkpt lat="45.3219" lon="1.17907">
        <ele>-0.70668691009757</ele>
        <time>2011-10-30 12:10:23</time>
      </trkpt>
      <trkpt lat="45.32153" lon="1.17885">
        <ele>-1.1891235192693</ele>
        <time>2011-10-30 12:10:28</time>
      </trkpt>
      <trkpt lat="45.32137" lon="1.17831">
        <ele>-0.49108676805133</ele>
        <time>2011-10-30 12:10:33</time>
      </trkpt>
      <trkpt lat="45.32128" lon="1.17772">
        <ele>-0.50852946807379</ele>
        <time>2011-10-30 12:10:38</time>
      </trkpt>
      <trkpt lat="45.32127" lon="1.17721">
        <ele>-0.39098854651149</ele>
        <time>2011-10-30 12:10:42</time>
      </trkpt>
      <trkpt lat="45.32123" lon="1.17661">
        <ele>-1.0929458129932</ele>
        <time>2011-10-30 12:10:47</time>
      </trkpt>
      <trkpt lat="45.32118" lon="1.17602">
        <ele>-0.38395949833034</ele>
        <time>2011-10-30 12:10:52</time>
      </trkpt>
      <trkpt lat="45.32119" lon="1.17542">
        <ele>-1.0489209677534</ele>
        <time>2011-10-30 12:10:57</time>
      </trkpt>
      <trkpt lat="45.3209" lon="1.175">
        <ele>-1.0143722279031</ele>
        <time>2011-10-30 12:11:02</time>
      </trkpt>
      <trkpt lat="45.32059" lon="1.1747">
        <ele>-0.83129887194013</ele>
        <time>2011-10-30 12:11:08</time>
      </trkpt>
      <trkpt lat="45.32064" lon="1.17416">
        <ele>-0.69867899913868</ele>
        <time>2011-10-30 12:11:16</time>
      </trkpt>
      <trkpt lat="45.32082" lon="1.17365">
        <ele>-0.46749472730255</ele>
        <time>2011-10-30 12:11:23</time>
      </trkpt>
      <trkpt lat="45.32106" lon="1.17325">
        <ele>-0.77274316238788</ele>
        <time>2011-10-30 12:11:29</time>
      </trkpt>
      <trkpt lat="45.32133" lon="1.17284">
        <ele>-0.37436102826734</ele>
        <time>2011-10-30 12:11:35</time>
      </trkpt>
      <trkpt lat="45.32104" lon="1.17321">
        <ele>-0.82600013210379</ele>
        <time>2011-10-30 12:11:50</time>
      </trkpt>
      <trkpt lat="45.32081" lon="1.1736">
        <ele>-0.52490147758033</ele>
        <time>2011-10-30 12:11:56</time>
      </trkpt>
      <trkpt lat="45.32077" lon="1.17309">
        <ele>-0.42444213345891</ele>
        <time>2011-10-30 12:12:28</time>
      </trkpt>
      <trkpt lat="45.3207" lon="1.17258">
        <ele>-1.0496507249793</ele>
        <time>2011-10-30 12:12:50</time>
      </trkpt>
      <trkpt lat="45.32048" lon="1.17214">
        <ele>-0.26021119671293</ele>
        <time>2011-10-30 12:13:06</time>
      </trkpt>
      <trkpt lat="45.32026" lon="1.17174">
        <ele>-0.85072265731833</ele>
        <time>2011-10-30 12:13:19</time>
      </trkpt>
      <trkpt lat="45.31998" lon="1.17137">
        <ele>-0.7476664762828</ele>
        <time>2011-10-30 12:13:32</time>
      </trkpt>
      <trkpt lat="45.31968" lon="1.17107">
        <ele>-0.55920607090036</ele>
        <time>2011-10-30 12:13:42</time>
      </trkpt>
      <trkpt lat="45.31936" lon="1.17066">
        <ele>-0.50464728142811</ele>
        <time>2011-10-30 12:13:49</time>
      </trkpt>
      <trkpt lat="45.31911" lon="1.17029">
        <ele>-1.0762342192962</ele>
        <time>2011-10-30 12:13:54</time>
      </trkpt>
      <trkpt lat="45.31883" lon="1.1699">
        <ele>-0.98061766919818</ele>
        <time>2011-10-30 12:13:59</time>
      </trkpt>
      <trkpt lat="45.31894" lon="1.16938">
        <ele>-0.79778715755287</ele>
        <time>2011-10-30 12:14:11</time>
      </trkpt>
      <trkpt lat="45.31891" lon="1.16887">
        <ele>-0.68199659129993</ele>
        <time>2011-10-30 12:14:19</time>
      </trkpt>
      <trkpt lat="45.31894" lon="1.16836">
        <ele>-0.53946883925107</ele>
        <time>2011-10-30 12:14:29</time>
      </trkpt>
      <trkpt lat="45.31909" lon="1.16787">
        <ele>-0.29749905114466</ele>
        <time>2011-10-30 12:14:36</time>
      </trkpt>
      <trkpt lat="45.31918" lon="1.16734">
        <ele>-0.8257639602765</ele>
        <time>2011-10-30 12:14:47</time>
      </trkpt>
      <trkpt lat="45.31935" lon="1.16688">
        <ele>-0.55274488060468</ele>
        <time>2011-10-30 12:14:53</time>
      </trkpt>
      <trkpt lat="45.31961" lon="1.1665">
        <ele>-0.81669191979245</ele>
        <time>2011-10-30 12:15:01</time>
      </trkpt>
      <trkpt lat="45.31999" lon="1.1664">
        <ele>-0.68831281132691</ele>
        <time>2011-10-30 12:15:11</time>
      </trkpt>
      <trkpt lat="45.32031" lon="1.16608">
        <ele>-0.85817063143543</ele>
        <time>2011-10-30 12:15:22</time>
      </trkpt>
      <trkpt lat="45.32057" lon="1.16569">
        <ele>-1.1493523606094</ele>
        <time>2011-10-30 12:15:34</time>
      </trkpt>
      <trkpt lat="45.32083" lon="1.16531">
        <ele>-0.70488972883891</ele>
        <time>2011-10-30 12:15:45</time>
      </trkpt>
      <trkpt lat="45.3211" lon="1.16496">
        <ele>-0.93704692875076</ele>
        <time>2011-10-30 12:15:55</time>
      </trkpt>
      <trkpt lat="45.32149" lon="1.16497">
        <ele>-0.69190701820833</ele>
        <time>2011-10-30 12:16:08</time>
      </trkpt>
      <trkpt lat="45.32185" lon="1.16519">
        <ele>-0.92857313160084</ele>
        <time>2011-10-30 12:42:15</time>
      </trkpt>
      <trkpt lat="45.32221" lon="1.16544">
        <ele>-1.1287319041512</ele>
        <time>2011-10-30 12:42:24</time>
      </trkpt>
      <trkpt lat="45.32256" lon="1.16569">
        <ele>-0.62533403930024</ele>
        <time>2011-10-30 12:42:31</time>
      </trkpt>
      <trkpt lat="45.32292" lon="1.16584">
        <ele>-0.95032520466975</ele>
        <time>2011-10-30 12:42:37</time>
      </trkpt>
    </trkseg>
  </trk>
</gpx>